Observation data for Clyde on 03/10/2018      Previous  Date  Next       Current Mesonet Observations  Soil Data  Daily Summary Page  Observations in Plain Language
KCL2 100600Z 19012KT 16/12 A2978 RMK A01 T01570123  RH  080%=      5-min Rain = 0
KCL2 100601Z 19015KT 16/12 A2978 RMK A01 T01570123  RH  080%=      5-min Rain = 0
KCL2 100602Z 19015KT 16/12 A2978 RMK A01 T01570123  RH  080%=      5-min Rain = 0
KCL2 100603Z 18014G19KT 16/12 A2978 RMK A01 T01570123  RH  080%=      5-min Rain = 0
KCL2 100604Z 19012KT 16/12 A2978 RMK A01 T01570123  RH  080%=      5-min Rain = 0
KCL2 100605Z 19011KT 16/12 A2978 RMK A01 T01570123  RH  080%=      5-min Rain = 0
KCL2 100606Z 18013KT 16/12 A2978 RMK A01 T01560122  RH  080%=      5-min Rain = 0
KCL2 100607Z 19013KT 16/12 A2978 RMK A01 T01560122  RH  080%=      5-min Rain = 0
KCL2 100608Z 19012KT 16/12 A2978 RMK A01 T01560123  RH  080%=      5-min Rain = 0
KCL2 100609Z 19012KT 16/12 A2978 RMK A01 T01560122  RH  080%=      5-min Rain = 0
KCL2 100610Z 19014G19KT 16/12 A2978 RMK A01 T01560122  RH  081%=      5-min Rain = 0
KCL2 100611Z 19016KT 16/12 A2978 RMK A01 T01560123  RH  081%=      5-min Rain = 0
KCL2 100612Z 19016KT 16/12 A2978 RMK A01 T01560123  RH  081%=      5-min Rain = 0
KCL2 100613Z 19013KT 16/12 A2978 RMK A01 T01560122  RH  080%=      5-min Rain = 0
KCL2 100614Z 19014KT 16/12 A2978 RMK A01 T01560123  RH  081%=      5-min Rain = 0
KCL2 100615Z 19013KT 16/12 A2978 RMK A01 T01560122  RH  080%=      5-min Rain = 0
KCL2 100616Z 19013KT 16/12 A2978 RMK A01 T01560123  RH  081%=      5-min Rain = 0
KCL2 100617Z 19012KT 16/12 A2978 RMK A01 T01550122  RH  081%=      5-min Rain = 0
KCL2 100618Z 19012KT 16/12 A2978 RMK A01 T01550122  RH  081%=      5-min Rain = 0
KCL2 100619Z 20014G19KT 16/12 A2978 RMK A01 T01550122  RH  081%=      5-min Rain = 0
KCL2 100620Z 19011KT 16/12 A2978 RMK A01 T01550123  RH  081%=      5-min Rain = 0
KCL2 100621Z 19014KT 15/12 A2978 RMK A01 T01540122  RH  081%=      5-min Rain = 0
KCL2 100622Z 19015KT 15/12 A2978 RMK A01 T01540122  RH  081%=      5-min Rain = 0
KCL2 100623Z 19014KT 16/12 A2978 RMK A01 T01550123  RH  081%=      5-min Rain = 0
KCL2 100624Z 19013G19KT 16/12 A2978 RMK A01 T01550123  RH  081%=      5-min Rain = 0
KCL2 100625Z 19014KT 16/12 A2978 RMK A01 T01560123  RH  081%=      5-min Rain = 0
KCL2 100626Z 19014KT 16/12 A2978 RMK A01 T01550123  RH  081%=      5-min Rain = 0
KCL2 100627Z 19017KT 16/12 A2978 RMK A01 T01550123  RH  081%=      5-min Rain = 0
KCL2 100628Z 19013KT 16/12 A2978 RMK A01 T01550123  RH  081%=      5-min Rain = 0
KCL2 100629Z 19013G18KT 16/12 A2978 RMK A01 T01550123  RH  081%=      5-min Rain = 0
KCL2 100630Z 19013KT 16/12 A2978 RMK A01 T01550123  RH  081%=      5-min Rain = 0
KCL2 100631Z 19014KT 16/12 A2978 RMK A01 T01550123  RH  081%=      5-min Rain = 0
KCL2 100632Z 19013KT 15/12 A2978 RMK A01 T01540123  RH  082%=      5-min Rain = 0
KCL2 100633Z 19014G19KT 15/12 A2978 RMK A01 T01540123  RH  082%=      5-min Rain = 0
KCL2 100634Z 19012KT 15/12 A2978 RMK A01 T01540123  RH  082%=      5-min Rain = 0
KCL2 100635Z 19014G19KT 15/12 A2978 RMK A01 T01540123  RH  082%=      5-min Rain = 0
KCL2 100636Z 19015KT 15/12 A2978 RMK A01 T01530123  RH  082%=      5-min Rain = 0
KCL2 100637Z 20015KT 15/12 A2978 RMK A01 T01530123  RH  082%=      5-min Rain = 0
KCL2 100638Z 20014KT 15/12 A2979 RMK A01 T01530123  RH  082%=      5-min Rain = 0
KCL2 100639Z 19014KT 15/12 A2979 RMK A01 T01540124  RH  082%=      5-min Rain = 0
KCL2 100640Z 20016KT 15/12 A2979 RMK A01 T01540124  RH  082%=      5-min Rain = 0
KCL2 100641Z 20015KT 15/12 A2979 RMK A01 T01540124  RH  082%=      5-min Rain = 0
KCL2 100642Z 20015KT 15/12 A2979 RMK A01 T01540124  RH  082%=      5-min Rain = 0
KCL2 100643Z 20017KT 15/12 A2979 RMK A01 T01540123  RH  082%=      5-min Rain = 0
KCL2 100644Z 20013KT 15/12 A2979 RMK A01 T01540124  RH  082%=      5-min Rain = 0
KCL2 100645Z 20015KT 15/12 A298 RMK A01 T01540124  RH  082%=      5-min Rain = 0
KCL2 100646Z 20015KT 15/12 A2979 RMK A01 T01540124  RH  082%=      5-min Rain = 0
KCL2 100647Z 20014KT 15/12 A298 RMK A01 T01540124  RH  082%=      5-min Rain = 0
KCL2 100648Z 21014KT 15/12 A298 RMK A01 T01540124  RH  082%=      5-min Rain = 0
KCL2 100649Z 21014KT 15/12 A298 RMK A01 T01540124  RH  083%=      5-min Rain = 0
KCL2 100650Z 21015KT 15/12 A298 RMK A01 T01540124  RH  083%=      5-min Rain = 0
KCL2 100651Z 20014G19KT 15/12 A298 RMK A01 T01540124  RH  083%=      5-min Rain = 0
KCL2 100652Z 20014KT 15/12 A298 RMK A01 T01530124  RH  083%=      5-min Rain = 0
KCL2 100653Z 21013KT 15/13 A298 RMK A01 T01530125  RH  083%=      5-min Rain = 0
KCL2 100654Z 21016KT 15/13 A298 RMK A01 T01530125  RH  083%=      5-min Rain = 0
KCL2 100655Z 20014KT 15/12 A298 RMK A01 T01540124  RH  083%=      5-min Rain = 0
KCL2 100656Z 20015KT 15/12 A298 RMK A01 T01530124  RH  083%=      5-min Rain = 0
KCL2 100657Z 20015KT 15/13 A298 RMK A01 T01540125  RH  083%=      5-min Rain = 0
KCL2 100658Z 20015KT 15/13 A298 RMK A01 T01540125  RH  083%=      5-min Rain = 0
KCL2 100659Z 21015G20KT 16/13 A298 RMK A01 T01550125  RH  082%=      5-min Rain = 0
KCL2 100700Z 20014KT 15/13 A298 RMK A01 T01540125  RH  083%=      5-min Rain = 0
KCL2 100701Z 20013KT 15/13 A298 RMK A01 T01540125  RH  083%=      5-min Rain = 0
KCL2 100702Z 20013G18KT 15/13 A298 RMK A01 T01530125  RH  083%=      5-min Rain = 0
KCL2 100703Z 21013KT 15/12 A298 RMK A01 T01530124  RH  083%=      5-min Rain = 0
KCL2 100704Z 21015KT 15/13 A298 RMK A01 T01530125  RH  083%=      5-min Rain = 0
KCL2 100705Z 21013KT 15/13 A298 RMK A01 T01530125  RH  083%=      5-min Rain = 0
KCL2 100706Z 21012KT 15/13 A298 RMK A01 T01530125  RH  083%=      5-min Rain = 0
KCL2 100707Z 20014KT 15/13 A298 RMK A01 T01530125  RH  083%=      5-min Rain = 0
KCL2 100708Z 21012KT 15/13 A298 RMK A01 T01530125  RH  083%=      5-min Rain = 0
KCL2 100709Z 21013KT 15/13 A298 RMK A01 T01530125  RH  083%=      5-min Rain = 0
KCL2 100710Z 21013KT 15/13 A298 RMK A01 T01520125  RH  084%=      5-min Rain = 0
KCL2 100711Z 21013KT 15/13 A298 RMK A01 T01520125  RH  084%=      5-min Rain = 0
KCL2 100712Z 21013KT 15/13 A298 RMK A01 T01520125  RH  084%=      5-min Rain = 0
KCL2 100713Z 21013KT 15/13 A298 RMK A01 T01520125  RH  084%=      5-min Rain = 0
KCL2 100714Z 21015KT 15/13 A298 RMK A01 T01520125  RH  084%=      5-min Rain = 0
KCL2 100715Z 21016KT 15/13 A298 RMK A01 T01520125  RH  084%=      5-min Rain = 0
KCL2 100716Z 21015KT 15/13 A298 RMK A01 T01520125  RH  084%=      5-min Rain = 0
KCL2 100717Z 21017G22KT 15/13 A298 RMK A01 T01520125  RH  084%=      5-min Rain = 0
KCL2 100718Z 21015KT 15/13 A298 RMK A01 T01530125  RH  084%=      5-min Rain = 0
KCL2 100719Z 21013KT 15/13 A298 RMK A01 T01530125  RH  084%=      5-min Rain = 0
KCL2 100720Z 21013KT 15/13 A298 RMK A01 T01530126  RH  084%=      5-min Rain = 0
KCL2 100721Z 21013KT 15/13 A298 RMK A01 T01520125  RH  084%=      5-min Rain = 0
KCL2 100722Z 21014KT 15/13 A298 RMK A01 T01520125  RH  084%=      5-min Rain = 0
KCL2 100723Z 20015KT 15/13 A298 RMK A01 T01520126  RH  084%=      5-min Rain = 0
KCL2 100724Z 21014KT 15/13 A298 RMK A01 T01520126  RH  084%=      5-min Rain = 0
KCL2 100725Z 21015G20KT 15/13 A298 RMK A01 T01520125  RH  084%=      5-min Rain = 0
KCL2 100726Z 21015KT 15/13 A298 RMK A01 T01520126  RH  084%=      5-min Rain = 0
KCL2 100727Z 21014G20KT 15/13 A298 RMK A01 T01520126  RH  084%=      5-min Rain = 0
KCL2 100728Z 21015KT 15/13 A298 RMK A01 T01520126  RH  084%=      5-min Rain = 0
KCL2 100729Z 21014KT 15/13 A298 RMK A01 T01520126  RH  085%=      5-min Rain = 0
KCL2 100730Z 21013KT 15/13 A298 RMK A01 T01520126  RH  084%=      5-min Rain = 0
KCL2 100731Z 21013KT 15/13 A298 RMK A01 T01530126  RH  084%=      5-min Rain = 0
KCL2 100732Z 21012KT 15/13 A298 RMK A01 T01520126  RH  084%=      5-min Rain = 0
KCL2 100733Z 21011KT 15/13 A298 RMK A01 T01520126  RH  085%=      5-min Rain = 0
KCL2 100734Z 21013G18KT 15/13 A298 RMK A01 T01520126  RH  085%=      5-min Rain = 0
KCL2 100735Z 21015G20KT 15/13 A298 RMK A01 T01510126  RH  085%=      5-min Rain = 0
KCL2 100736Z 21016G21KT 15/13 A298 RMK A01 T01520127  RH  085%=      5-min Rain = 0
KCL2 100737Z 21016KT 15/13 A298 RMK A01 T01520127  RH  085%=      5-min Rain = 0
KCL2 100738Z 21013KT 15/13 A298 RMK A01 T01530127  RH  084%=      5-min Rain = 0
KCL2 100739Z 21014G19KT 15/13 A298 RMK A01 T01530127  RH  084%=      5-min Rain = 0
KCL2 100740Z 21014KT 15/13 A298 RMK A01 T01520127  RH  085%=      5-min Rain = 0
KCL2 100741Z 21014KT 15/13 A298 RMK A01 T01520128  RH  085%=      5-min Rain = 0
KCL2 100742Z 21014KT 15/13 A298 RMK A01 T01520127  RH  085%=      5-min Rain = 0
KCL2 100743Z 21014G20KT 15/13 A298 RMK A01 T01520127  RH  085%=      5-min Rain = 0
KCL2 100744Z 21015G20KT 15/13 A298 RMK A01 T01520128  RH  085%=      5-min Rain = 0
KCL2 100745Z 22016KT 15/13 A298 RMK A01 T01530128  RH  085%=      5-min Rain = 0
KCL2 100746Z 21015KT 15/13 A298 RMK A01 T01530128  RH  085%=      5-min Rain = 0
KCL2 100747Z 22018G23KT 15/13 A298 RMK A01 T01530128  RH  085%=      5-min Rain = 0
KCL2 100748Z 21021G26KT 15/13 A298 RMK A01 T01540129  RH  085%=      5-min Rain = 0
KCL2 100749Z 22017KT 16/13 A298 RMK A01 T01550129  RH  085%=      5-min Rain = 0
KCL2 100750Z 22014KT 16/13 A298 RMK A01 T01550129  RH  084%=      5-min Rain = 0
KCL2 100751Z 22016KT 16/13 A298 RMK A01 T01550129  RH  084%=      5-min Rain = 0
KCL2 100752Z 22014KT 15/13 A298 RMK A01 T01540129  RH  085%=      5-min Rain = 0
KCL2 100753Z 22017KT 15/13 A298 RMK A01 T01540129  RH  085%=      5-min Rain = 0
KCL2 100754Z 22016G22KT 15/13 A298 RMK A01 T01540129  RH  085%=      5-min Rain = 0
KCL2 100755Z 22016KT 15/13 A298 RMK A01 T01540129  RH  085%=      5-min Rain = 0
KCL2 100756Z 22015KT 15/13 A298 RMK A01 T01540129  RH  085%=      5-min Rain = 0
KCL2 100757Z 22013KT 15/13 A2981 RMK A01 T01540129  RH  085%=      5-min Rain = 0
KCL2 100758Z 22016KT 15/13 A298 RMK A01 T01530129  RH  086%=      5-min Rain = 0
KCL2 100759Z 22017KT 15/13 A298 RMK A01 T01530129  RH  086%=      5-min Rain = 0
KCL2 100800Z 22015KT 15/13 A2981 RMK A01 T01540129  RH  085%=      5-min Rain = 0
KCL2 100801Z 22013KT 15/13 A2981 RMK A01 T01540129  RH  085%=      5-min Rain = 0
KCL2 100802Z 22016KT 15/13 A2981 RMK A01 T01540129  RH  085%=      5-min Rain = 0
KCL2 100803Z 22014KT 15/13 A2981 RMK A01 T01530129  RH  086%=      5-min Rain = 0
KCL2 100804Z 22016KT 15/13 A2981 RMK A01 T01530129  RH  086%=      5-min Rain = 0
KCL2 100805Z 22014KT 15/13 A2981 RMK A01 T01530129  RH  086%=      5-min Rain = 0
KCL2 100806Z 21016KT 15/13 A298 RMK A01 T01530130  RH  086%=      5-min Rain = 0
KCL2 100807Z 22015KT 15/13 A298 RMK A01 T01530129  RH  086%=      5-min Rain = 0
KCL2 100808Z 22014KT 15/13 A298 RMK A01 T01530129  RH  086%=      5-min Rain = 0
KCL2 100809Z 22013KT 15/13 A298 RMK A01 T01530129  RH  086%=      5-min Rain = 0
KCL2 100810Z 22013KT 15/13 A298 RMK A01 T01530129  RH  086%=      5-min Rain = 0
KCL2 100811Z 22014KT 15/13 A298 RMK A01 T01520129  RH  086%=      5-min Rain = 0
KCL2 100812Z 22013KT 15/13 A2981 RMK A01 T01520129  RH  086%=      5-min Rain = 0
KCL2 100813Z 22014KT 15/13 A298 RMK A01 T01520129  RH  086%=      5-min Rain = 0
KCL2 100814Z 22015KT 15/13 A298 RMK A01 T01520129  RH  086%=      5-min Rain = 0
KCL2 100815Z 22015KT 15/13 A298 RMK A01 T01520129  RH  086%=      5-min Rain = 0
KCL2 100816Z 21013KT 15/13 A298 RMK A01 T01530130  RH  086%=      5-min Rain = 0
KCL2 100817Z 22014KT 15/13 A298 RMK A01 T01520129  RH  086%=      5-min Rain = 0
KCL2 100818Z 22013KT 15/13 A298 RMK A01 T01520129  RH  086%=      5-min Rain = 0
KCL2 100819Z 22014G19KT 15/13 A298 RMK A01 T01510128  RH  086%=      5-min Rain = 0
KCL2 100820Z 21015KT 15/13 A298 RMK A01 T01510129  RH  087%=      5-min Rain = 0
KCL2 100821Z 22013KT 15/13 A298 RMK A01 T01510129  RH  087%=      5-min Rain = 0
KCL2 100822Z 22014KT 15/13 A298 RMK A01 T01510129  RH  086%=      5-min Rain = 0
KCL2 100823Z 22014KT 15/13 A298 RMK A01 T01510129  RH  087%=      5-min Rain = 0
KCL2 100824Z 22014KT 15/13 A298 RMK A01 T01510129  RH  087%=      5-min Rain = 0
KCL2 100825Z 22015KT 15/13 A298 RMK A01 T01510129  RH  087%=      5-min Rain = 0
KCL2 100826Z 22014KT 15/13 A298 RMK A01 T01510129  RH  087%=      5-min Rain = 0
KCL2 100827Z 22011KT 15/13 A298 RMK A01 T01510129  RH  086%=      5-min Rain = 0
KCL2 100828Z 22013KT 15/13 A298 RMK A01 T01510128  RH  087%=      5-min Rain = 0
KCL2 100829Z 22013KT 15/13 A298 RMK A01 T01500128  RH  087%=      5-min Rain = 0
KCL2 100830Z 22013KT 15/13 A298 RMK A01 T01490128  RH  087%=      5-min Rain = 0
KCL2 100831Z 22013G19KT 15/13 A298 RMK A01 T01500129  RH  087%=      5-min Rain = 0
KCL2 100832Z 22014KT 15/13 A298 RMK A01 T01500129  RH  087%=      5-min Rain = 0
KCL2 100833Z 22011KT 15/13 A298 RMK A01 T01490128  RH  087%=      5-min Rain = 0
KCL2 100834Z 22012KT 15/13 A298 RMK A01 T01490128  RH  087%=      5-min Rain = 0
KCL2 100835Z 22012KT 15/13 A298 RMK A01 T01490128  RH  087%=      5-min Rain = 0
KCL2 100836Z 22011KT 15/13 A298 RMK A01 T01490128  RH  088%=      5-min Rain = 0
KCL2 100837Z 22012KT 15/13 A298 RMK A01 T01490128  RH  088%=      5-min Rain = 0
KCL2 100838Z 22012KT 15/13 A298 RMK A01 T01480128  RH  088%=      5-min Rain = 0
KCL2 100839Z 22011KT 15/13 A298 RMK A01 T01490128  RH  088%=      5-min Rain = 0
KCL2 100840Z 22011KT 15/13 A298 RMK A01 T01480128  RH  088%=      5-min Rain = 0
KCL2 100841Z 22011KT 15/13 A298 RMK A01 T01480128  RH  088%=      5-min Rain = 0
KCL2 100842Z 22012KT 15/13 A298 RMK A01 T01480128  RH  088%=      5-min Rain = 0
KCL2 100843Z 23011KT 15/13 A298 RMK A01 T01480128  RH  088%=      5-min Rain = 0
KCL2 100844Z 22012KT 15/13 A298 RMK A01 T01480128  RH  088%=      5-min Rain = 0
KCL2 100845Z 22011KT 15/13 A298 RMK A01 T01480128  RH  088%=      5-min Rain = 0
KCL2 100846Z 22012KT 15/13 A298 RMK A01 T01470127  RH  088%=      5-min Rain = 0
KCL2 100847Z 22013KT 15/13 A298 RMK A01 T01470128  RH  088%=      5-min Rain = 0
KCL2 100848Z 23013KT 15/13 A298 RMK A01 T01470128  RH  088%=      5-min Rain = 0
KCL2 100849Z 22013KT 15/13 A298 RMK A01 T01470128  RH  088%=      5-min Rain = 0
KCL2 100850Z 22010KT 15/13 A298 RMK A01 T01470128  RH  088%=      5-min Rain = 0
KCL2 100851Z 23011KT 15/13 A298 RMK A01 T01470127  RH  088%=      5-min Rain = 0
KCL2 100852Z 22011KT 15/13 A298 RMK A01 T01460127  RH  088%=      5-min Rain = 0
KCL2 100853Z 22011KT 15/13 A298 RMK A01 T01460127  RH  089%=      5-min Rain = 0
KCL2 100854Z 22013KT 15/13 A298 RMK A01 T01460128  RH  089%=      5-min Rain = 0
KCL2 100855Z 23013KT 15/13 A298 RMK A01 T01460127  RH  089%=      5-min Rain = 0
KCL2 100856Z 23012KT 15/13 A298 RMK A01 T01460127  RH  089%=      5-min Rain = 0
KCL2 100857Z 22010KT 15/13 A298 RMK A01 T01460127  RH  088%=      5-min Rain = 0
KCL2 100858Z 22010KT 15/13 A298 RMK A01 T01460127  RH  088%=      5-min Rain = 0
KCL2 100859Z 23010KT 15/13 A298 RMK A01 T01450127  RH  089%=      5-min Rain = 0
KCL2 100900Z 22010KT 15/13 A298 RMK A01 T01450127  RH  089%=      5-min Rain = 0
KCL2 100901Z 23011KT 14/13 A298 RMK A01 T01440127  RH  089%=      5-min Rain = 0
KCL2 100902Z 23011KT 14/13 A2979 RMK A01 T01440127  RH  089%=      5-min Rain = 0
KCL2 100903Z 23010KT 14/13 A2979 RMK A01 T01440127  RH  089%=      5-min Rain = 0
KCL2 100904Z 23009KT 15/13 A2979 RMK A01 T01450127  RH  089%=      5-min Rain = 0
KCL2 100905Z 22008KT 14/13 A2979 RMK A01 T01440127  RH  089%=      5-min Rain = 0
KCL2 100906Z 23010KT 14/13 A2979 RMK A01 T01440126  RH  089%=      5-min Rain = 0
KCL2 100907Z 23009KT 14/13 A2979 RMK A01 T01430126  RH  090%=      5-min Rain = 0
KCL2 100908Z 23008KT 14/13 A2979 RMK A01 T01440127  RH  089%=      5-min Rain = 0
KCL2 100909Z 23008KT 14/13 A2979 RMK A01 T01440126  RH  089%=      5-min Rain = 0
KCL2 100910Z 23008KT 14/13 A2979 RMK A01 T01430125  RH  089%=      5-min Rain = 0
KCL2 100911Z 22009KT 14/13 A2979 RMK A01 T01420125  RH  090%=      5-min Rain = 0
KCL2 100912Z 23009KT 14/13 A2979 RMK A01 T01420126  RH  090%=      5-min Rain = 0
KCL2 100913Z 22008KT 14/13 A2979 RMK A01 T01420125  RH  090%=      5-min Rain = 0
KCL2 100914Z 22007KT 14/13 A2979 RMK A01 T01410125  RH  090%=      5-min Rain = 0
KCL2 100915Z 23009KT 14/12 A2979 RMK A01 T01410124  RH  090%=      5-min Rain = 0
KCL2 100916Z 23008KT 14/13 A2979 RMK A01 T01400125  RH  090%=      5-min Rain = 0
KCL2 100917Z 23008KT 14/13 A2979 RMK A01 T01400125  RH  090%=      5-min Rain = 0
KCL2 100918Z 23009KT 14/13 A2979 RMK A01 T01400125  RH  090%=      5-min Rain = 0
KCL2 100919Z 23009KT 14/13 A298 RMK A01 T01400125  RH  091%=      5-min Rain = 0
KCL2 100920Z 23011KT 14/13 A298 RMK A01 T01400125  RH  091%=      5-min Rain = 0
KCL2 100921Z 23009KT 14/13 A298 RMK A01 T01400125  RH  091%=      5-min Rain = 0
KCL2 100922Z 23009KT 14/13 A298 RMK A01 T01400125  RH  090%=      5-min Rain = 0
KCL2 100923Z 23008KT 14/13 A298 RMK A01 T01400125  RH  090%=      5-min Rain = 0
KCL2 100924Z 22009KT 14/13 A298 RMK A01 T01400125  RH  090%=      5-min Rain = 0
KCL2 100925Z 22008KT 14/12 A2979 RMK A01 T01400124  RH  091%=      5-min Rain = 0
KCL2 100926Z 22009KT 14/13 A2979 RMK A01 T01400125  RH  090%=      5-min Rain = 0
KCL2 100927Z 22008KT 14/13 A2979 RMK A01 T01400125  RH  091%=      5-min Rain = 0
KCL2 100928Z 22007KT 14/13 A2979 RMK A01 T01400125  RH  090%=      5-min Rain = 0
KCL2 100929Z 22009KT 14/12 A2979 RMK A01 T01390124  RH  090%=      5-min Rain = 0
KCL2 100930Z 22009KT 14/12 A2979 RMK A01 T01390124  RH  091%=      5-min Rain = 0
KCL2 100931Z 22009KT 14/12 A2979 RMK A01 T01390124  RH  091%=      5-min Rain = 0
KCL2 100932Z 22009KT 14/12 A2979 RMK A01 T01390124  RH  091%=      5-min Rain = 0
KCL2 100933Z 22009KT 14/12 A2979 RMK A01 T01390124  RH  091%=      5-min Rain = 0
KCL2 100934Z 22009KT 14/12 A2979 RMK A01 T01390124  RH  091%=      5-min Rain = 0
KCL2 100935Z 22009KT 14/12 A2979 RMK A01 T01390124  RH  091%=      5-min Rain = 0
KCL2 100936Z 22010KT 14/13 A2979 RMK A01 T01390125  RH  091%=      5-min Rain = 0
KCL2 100937Z 22008KT 14/12 A2979 RMK A01 T01390124  RH  091%=      5-min Rain = 0
KCL2 100938Z 22009KT 14/12 A2979 RMK A01 T01390124  RH  091%=      5-min Rain = 0
KCL2 100939Z 21008KT 14/12 A2979 RMK A01 T01390124  RH  091%=      5-min Rain = 0
KCL2 100940Z 22009KT 14/12 A2979 RMK A01 T01390124  RH  091%=      5-min Rain = 0
KCL2 100941Z 22009KT 14/12 A2979 RMK A01 T01380123  RH  091%=      5-min Rain = 0
KCL2 100942Z 21009KT 14/12 A2979 RMK A01 T01380124  RH  091%=      5-min Rain = 0
KCL2 100943Z 21008KT 14/12 A2979 RMK A01 T01380124  RH  091%=      5-min Rain = 0
KCL2 100944Z 22008KT 14/12 A2979 RMK A01 T01380124  RH  091%=      5-min Rain = 0
KCL2 100945Z 22009KT 14/12 A2979 RMK A01 T01380124  RH  091%=      5-min Rain = 0
KCL2 100946Z 21009KT 14/12 A2979 RMK A01 T01380124  RH  091%=      5-min Rain = 0
KCL2 100947Z 21008KT 14/12 A2979 RMK A01 T01380124  RH  091%=      5-min Rain = 0
KCL2 100948Z 21008KT 14/12 A2979 RMK A01 T01370123  RH  091%=      5-min Rain = 0
KCL2 100949Z 21010KT 14/12 A2979 RMK A01 T01370123  RH  091%=      5-min Rain = 0
KCL2 100950Z 21009KT 14/12 A2979 RMK A01 T01370124  RH  092%=      5-min Rain = 0
KCL2 100951Z 21010KT 14/12 A2979 RMK A01 T01370124  RH  092%=      5-min Rain = 0
KCL2 100952Z 21009KT 14/12 A2979 RMK A01 T01380124  RH  092%=      5-min Rain = 0
KCL2 100953Z 21010KT 14/12 A2979 RMK A01 T01380124  RH  091%=      5-min Rain = 0
KCL2 100954Z 21009KT 14/12 A2979 RMK A01 T01370124  RH  091%=      5-min Rain = 0
KCL2 100955Z 21010KT 14/12 A2979 RMK A01 T01380124  RH  092%=      5-min Rain = 0
KCL2 100956Z 21010KT 14/12 A2979 RMK A01 T01370124  RH  092%=      5-min Rain = 0
KCL2 100957Z 21011KT 14/13 A2979 RMK A01 T01380125  RH  092%=      5-min Rain = 0
KCL2 100958Z 21009KT 14/12 A2979 RMK A01 T01380124  RH  092%=      5-min Rain = 0
KCL2 100959Z 21008KT 14/12 A2979 RMK A01 T01370124  RH  092%=      5-min Rain = 0
KCL2 101000Z 21010KT 14/12 A2979 RMK A01 T01370124  RH  092%=      5-min Rain = 0
KCL2 101001Z 21010KT 14/12 A2979 RMK A01 T01370124  RH  092%=      5-min Rain = 0
KCL2 101002Z 21009KT 14/12 A2979 RMK A01 T01370124  RH  092%=      5-min Rain = 0
KCL2 101003Z 22008KT 14/12 A2979 RMK A01 T01370124  RH  092%=      5-min Rain = 0
KCL2 101004Z 21008KT 14/12 A2978 RMK A01 T01370124  RH  092%=      5-min Rain = 0
KCL2 101005Z 21010KT 14/12 A2978 RMK A01 T01360123  RH  092%=      5-min Rain = 0
KCL2 101006Z 21010KT 14/12 A2978 RMK A01 T01360123  RH  092%=      5-min Rain = 0
KCL2 101007Z 21008KT 14/12 A2978 RMK A01 T01360123  RH  092%=      5-min Rain = 0
KCL2 101008Z 21008KT 14/12 A2978 RMK A01 T01360123  RH  092%=      5-min Rain = 0
KCL2 101009Z 21009KT 14/12 A2978 RMK A01 T01360123  RH  092%=      5-min Rain = 0
KCL2 101010Z 21007KT 14/12 A2978 RMK A01 T01360123  RH  092%=      5-min Rain = 0
KCL2 101011Z 21008KT 14/12 A2978 RMK A01 T01350123  RH  092%=      5-min Rain = 0
KCL2 101012Z 21008KT 14/12 A2978 RMK A01 T01350123  RH  092%=      5-min Rain = 0
KCL2 101013Z 21008KT 14/12 A2978 RMK A01 T01350123  RH  092%=      5-min Rain = 0
KCL2 101014Z 21008KT 14/12 A2978 RMK A01 T01350122  RH  092%=      5-min Rain = 0
KCL2 101015Z 21008KT 14/12 A2978 RMK A01 T01350123  RH  092%=      5-min Rain = 0
KCL2 101016Z 22007KT 14/12 A2978 RMK A01 T01350122  RH  092%=      5-min Rain = 0
KCL2 101017Z 22008KT 13/12 A2978 RMK A01 T01340123  RH  093%=      5-min Rain = 0
KCL2 101018Z 21007KT 13/12 A2978 RMK A01 T01340123  RH  093%=      5-min Rain = 0
KCL2 101019Z 21009KT 13/12 A2978 RMK A01 T01340122  RH  092%=      5-min Rain = 0
KCL2 101020Z 22008KT 14/12 A2978 RMK A01 T01350123  RH  093%=      5-min Rain = 0
KCL2 101021Z 21008KT 14/12 A2978 RMK A01 T01350123  RH  093%=      5-min Rain = 0
KCL2 101022Z 21008KT 14/12 A2978 RMK A01 T01350123  RH  092%=      5-min Rain = 0
KCL2 101023Z 21007KT 14/12 A2978 RMK A01 T01350123  RH  092%=      5-min Rain = 0
KCL2 101024Z 21008KT 14/12 A2978 RMK A01 T01350122  RH  092%=      5-min Rain = 0
KCL2 101025Z 21008KT 13/12 A2978 RMK A01 T01340123  RH  093%=      5-min Rain = 0
KCL2 101026Z 21008KT 14/12 A2978 RMK A01 T01350124  RH  093%=      5-min Rain = 0
KCL2 101027Z 21007KT 14/12 A2978 RMK A01 T01350123  RH  092%=      5-min Rain = 0
KCL2 101028Z 21008KT 14/12 A2978 RMK A01 T01350123  RH  092%=      5-min Rain = 0
KCL2 101029Z 21008KT 14/12 A2978 RMK A01 T01350123  RH  092%=      5-min Rain = 0
KCL2 101030Z 21007KT 14/12 A2978 RMK A01 T01350122  RH  092%=      5-min Rain = 0
KCL2 101031Z 21007KT 13/12 A2978 RMK A01 T01340123  RH  093%=      5-min Rain = 0
KCL2 101032Z 21007KT 13/12 A2978 RMK A01 T01340122  RH  092%=      5-min Rain = 0
KCL2 101033Z 21008KT 13/12 A2978 RMK A01 T01340122  RH  092%=      5-min Rain = 0
KCL2 101034Z 21008KT 13/12 A2978 RMK A01 T01340122  RH  093%=      5-min Rain = 0
KCL2 101035Z 21008KT 13/12 A2978 RMK A01 T01340123  RH  093%=      5-min Rain = 0
KCL2 101036Z 21007KT 13/12 A2978 RMK A01 T01340123  RH  093%=      5-min Rain = 0
KCL2 101037Z 21008KT 13/12 A2978 RMK A01 T01340122  RH  092%=      5-min Rain = 0
KCL2 101038Z 21007KT 13/12 A2978 RMK A01 T01340122  RH  093%=      5-min Rain = 0
KCL2 101039Z 21008KT 13/12 A2978 RMK A01 T01330122  RH  093%=      5-min Rain = 0
KCL2 101040Z 21008KT 13/12 A2978 RMK A01 T01330122  RH  093%=      5-min Rain = 0
KCL2 101041Z 21008KT 13/12 A2978 RMK A01 T01330123  RH  093%=      5-min Rain = 0
KCL2 101042Z 22008KT 13/12 A2978 RMK A01 T01330123  RH  093%=      5-min Rain = 0
KCL2 101043Z 22007KT 13/12 A2978 RMK A01 T01340123  RH  093%=      5-min Rain = 0
KCL2 101044Z 22008KT 13/12 A2978 RMK A01 T01330122  RH  093%=      5-min Rain = 0
KCL2 101045Z 22008KT 13/12 A2978 RMK A01 T01330123  RH  093%=      5-min Rain = 0
KCL2 101046Z 22007KT 13/12 A2978 RMK A01 T01330123  RH  093%=      5-min Rain = 0
KCL2 101047Z 21008KT 13/12 A2978 RMK A01 T01330123  RH  093%=      5-min Rain = 0
KCL2 101048Z 22009KT 13/12 A2978 RMK A01 T01330122  RH  093%=      5-min Rain = 0
KCL2 101049Z 22008KT 13/12 A2978 RMK A01 T01330122  RH  093%=      5-min Rain = 0
KCL2 101050Z 22008KT 13/12 A2978 RMK A01 T01320122  RH  094%=      5-min Rain = 0
KCL2 101051Z 22009KT 13/12 A2978 RMK A01 T01330123  RH  094%=      5-min Rain = 0
KCL2 101052Z 22009KT 13/12 A2978 RMK A01 T01330123  RH  094%=      5-min Rain = 0
KCL2 101053Z 22008KT 13/12 A2978 RMK A01 T01340124  RH  094%=      5-min Rain = 0
KCL2 101054Z 22008KT 13/12 A2978 RMK A01 T01340123  RH  093%=      5-min Rain = 0
KCL2 101055Z 22009KT 13/12 A2978 RMK A01 T01330123  RH  093%=      5-min Rain = 0
KCL2 101056Z 22008KT 13/12 A2978 RMK A01 T01330123  RH  093%=      5-min Rain = 0
KCL2 101057Z 22007KT 13/12 A2978 RMK A01 T01330123  RH  093%=      5-min Rain = 0
KCL2 101058Z 22008KT 13/12 A2978 RMK A01 T01330123  RH  093%=      5-min Rain = 0
KCL2 101059Z 22008KT 13/12 A2978 RMK A01 T01330123  RH  094%=      5-min Rain = 0
KCL2 101100Z 22008KT 13/12 A2978 RMK A01 T01330123  RH  094%=      5-min Rain = 0
KCL2 101101Z 22008KT 13/12 A2978 RMK A01 T01330123  RH  094%=      5-min Rain = 0
KCL2 101102Z 22008KT 13/12 A2978 RMK A01 T01330123  RH  094%=      5-min Rain = 0
KCL2 101103Z 22009KT 13/12 A2978 RMK A01 T01330123  RH  093%=      5-min Rain = 0
KCL2 101104Z 22009KT 13/12 A2978 RMK A01 T01330122  RH  093%=      5-min Rain = 0
KCL2 101105Z 23008KT 13/12 A2978 RMK A01 T01330123  RH  094%=      5-min Rain = 0
KCL2 101106Z 23009KT 13/12 A2978 RMK A01 T01330123  RH  093%=      5-min Rain = 0
KCL2 101107Z 22009KT 13/12 A2979 RMK A01 T01330123  RH  093%=      5-min Rain = 0
KCL2 101108Z 23008KT 13/12 A2979 RMK A01 T01330123  RH  094%=      5-min Rain = 0
KCL2 101109Z 23008KT 13/12 A2979 RMK A01 T01330123  RH  094%=      5-min Rain = 0
KCL2 101110Z 23009KT 13/12 A2979 RMK A01 T01320122  RH  094%=      5-min Rain = 0
KCL2 101111Z 23008KT 13/12 A2979 RMK A01 T01320122  RH  094%=      5-min Rain = 0
KCL2 101112Z 23008KT 13/12 A2979 RMK A01 T01320122  RH  094%=      5-min Rain = 0
KCL2 101113Z 23009KT 13/12 A2979 RMK A01 T01310122  RH  094%=      5-min Rain = 0
KCL2 101114Z 23008KT 13/12 A2979 RMK A01 T01320123  RH  094%=      5-min Rain = 0
KCL2 101115Z 23008KT 13/12 A2979 RMK A01 T01320123  RH  094%=      5-min Rain = 0
KCL2 101116Z 23008KT 13/12 A2979 RMK A01 T01320123  RH  094%=      5-min Rain = 0
KCL2 101117Z 23010KT 13/12 A2979 RMK A01 T01320123  RH  094%=      5-min Rain = 0
KCL2 101118Z 23009KT 13/12 A2979 RMK A01 T01320123  RH  094%=      5-min Rain = 0
KCL2 101119Z 23008KT 13/12 A2979 RMK A01 T01320123  RH  094%=      5-min Rain = 0
KCL2 101120Z 23010KT 13/12 A2979 RMK A01 T01330124  RH  094%=      5-min Rain = 0
KCL2 101121Z 23010KT 13/12 A2979 RMK A01 T01330124  RH  094%=      5-min Rain = 0
KCL2 101122Z 23009KT 13/12 A2979 RMK A01 T01330124  RH  094%=      5-min Rain = 0
KCL2 101123Z 23009KT 13/12 A2979 RMK A01 T01340124  RH  094%=      5-min Rain = 0
KCL2 101124Z 22010KT 13/12 A2979 RMK A01 T01340124  RH  094%=      5-min Rain = 0
KCL2 101125Z 23010KT 13/12 A2978 RMK A01 T01340124  RH  094%=      5-min Rain = 0
KCL2 101126Z 23010KT 13/12 A2978 RMK A01 T01340124  RH  094%=      5-min Rain = 0
KCL2 101127Z 23010KT 13/13 A2979 RMK A01 T01340125  RH  094%=      5-min Rain = 0
KCL2 101128Z 23009KT 13/13 A2978 RMK A01 T01340125  RH  094%=      5-min Rain = 0
KCL2 101129Z 23012KT 14/13 A2978 RMK A01 T01350125  RH  094%=      5-min Rain = 0
KCL2 101130Z 23012KT 13/13 A2978 RMK A01 T01340125  RH  094%=      5-min Rain = 0
KCL2 101131Z 23012KT 14/13 A2978 RMK A01 T01350126  RH  094%=      5-min Rain = 0
KCL2 101132Z 22013KT 14/13 A2979 RMK A01 T01350126  RH  094%=      5-min Rain = 0
KCL2 101133Z 23014KT 14/13 A2978 RMK A01 T01360126  RH  094%=      5-min Rain = 0
KCL2 101134Z 23013KT 14/13 A2979 RMK A01 T01360126  RH  094%=      5-min Rain = 0
KCL2 101135Z 23015KT 14/13 A2979 RMK A01 T01360126  RH  093%=      5-min Rain = 0
KCL2 101136Z 23012KT 14/13 A2979 RMK A01 T01360126  RH  094%=      5-min Rain = 0
KCL2 101137Z 22012KT 14/13 A2979 RMK A01 T01360126  RH  093%=      5-min Rain = 0
KCL2 101138Z 23012KT 14/13 A2979 RMK A01 T01360125  RH  093%=      5-min Rain = 0
KCL2 101139Z 23012KT 14/13 A2979 RMK A01 T01360126  RH  094%=      5-min Rain = 0
KCL2 101140Z 23012KT 14/13 A2979 RMK A01 T01360126  RH  094%=      5-min Rain = 0
KCL2 101141Z 23011KT 14/13 A2979 RMK A01 T01360126  RH  094%=      5-min Rain = 0
KCL2 101142Z 23013G18KT 14/13 A2979 RMK A01 T01360125  RH  094%=      5-min Rain = 0
KCL2 101143Z 22011KT 14/13 A2979 RMK A01 T01360126  RH  094%=      5-min Rain = 0
KCL2 101144Z 23012KT 14/13 A2979 RMK A01 T01360126  RH  093%=      5-min Rain = 0
KCL2 101145Z 23012KT 14/13 A2979 RMK A01 T01360125  RH  094%=      5-min Rain = 0
KCL2 101146Z 23013KT 14/13 A2979 RMK A01 T01360126  RH  094%=      5-min Rain = 0
KCL2 101147Z 23012KT 14/13 A2979 RMK A01 T01360125  RH  094%=      5-min Rain = 0
KCL2 101148Z 23011KT 14/13 A2979 RMK A01 T01360125  RH  093%=      5-min Rain = 0
KCL2 101149Z 23013KT 14/13 A2979 RMK A01 T01350125  RH  093%=      5-min Rain = 0
KCL2 101150Z 23011KT 14/13 A2979 RMK A01 T01350125  RH  093%=      5-min Rain = 0
KCL2 101151Z 23011KT 14/13 A2979 RMK A01 T01350125  RH  093%=      5-min Rain = 0
KCL2 101152Z 23011KT 14/12 A2979 RMK A01 T01350124  RH  093%=      5-min Rain = 0
KCL2 101153Z 23011KT 13/12 A2979 RMK A01 T01340124  RH  094%=      5-min Rain = 0
KCL2 101154Z 23010KT 13/12 A298 RMK A01 T01340124  RH  094%=      5-min Rain = 0
KCL2 101155Z 23010KT 13/12 A298 RMK A01 T01340124  RH  094%=      5-min Rain = 0
KCL2 101156Z 23011KT 13/12 A298 RMK A01 T01330124  RH  094%=      5-min Rain = 0
KCL2 101157Z 23011KT 13/12 A298 RMK A01 T01330124  RH  094%=      5-min Rain = 0
KCL2 101158Z 23011KT 13/12 A298 RMK A01 T01330124  RH  094%=      5-min Rain = 0
KCL2 101159Z 23011KT 13/12 A298 RMK A01 T01330124  RH  094%=      5-min Rain = 0
KCL2 101200Z 23011KT 13/12 A298 RMK A01 T01330123  RH  094%=      5-min Rain = 0
KCL2 101201Z 23011KT 13/12 A298 RMK A01 T01330123  RH  094%=      5-min Rain = 0
KCL2 101202Z 23011KT 13/12 A298 RMK A01 T01330124  RH  094%=      5-min Rain = 0
KCL2 101203Z 23012KT 13/12 A298 RMK A01 T01330124  RH  094%=      5-min Rain = 0
KCL2 101204Z 23012KT 13/12 A298 RMK A01 T01330124  RH  094%=      5-min Rain = 0
KCL2 101205Z 23011KT 13/12 A298 RMK A01 T01330123  RH  094%=      5-min Rain = 0
KCL2 101206Z 23011KT 13/12 A298 RMK A01 T01330124  RH  094%=      5-min Rain = 0
KCL2 101207Z 23010KT 13/12 A298 RMK A01 T01330123  RH  094%=      5-min Rain = 0
KCL2 101208Z 23011KT 13/12 A298 RMK A01 T01330123  RH  094%=      5-min Rain = 0
KCL2 101209Z 23011KT 13/12 A298 RMK A01 T01320123  RH  094%=      5-min Rain = 0
KCL2 101210Z 23009KT 13/12 A298 RMK A01 T01320123  RH  094%=      5-min Rain = 0
KCL2 101211Z 23011KT 13/12 A298 RMK A01 T01320123  RH  094%=      5-min Rain = 0
KCL2 101212Z 23011KT 13/12 A298 RMK A01 T01320123  RH  094%=      5-min Rain = 0
KCL2 101213Z 23010KT 13/12 A2981 RMK A01 T01320123  RH  094%=      5-min Rain = 0
KCL2 101214Z 23010KT 13/12 A2981 RMK A01 T01320123  RH  094%=      5-min Rain = 0
KCL2 101215Z 23010KT 13/12 A2981 RMK A01 T01320123  RH  094%=      5-min Rain = 0
KCL2 101216Z 23010KT 13/12 A2981 RMK A01 T01320123  RH  094%=      5-min Rain = 0
KCL2 101217Z 23011KT 13/12 A2981 RMK A01 T01320123  RH  094%=      5-min Rain = 0
KCL2 101218Z 23011KT 13/12 A2981 RMK A01 T01320123  RH  094%=      5-min Rain = 0
KCL2 101219Z 24010KT 13/12 A2981 RMK A01 T01320123  RH  094%=      5-min Rain = 0
KCL2 101220Z 23012KT 13/12 A2981 RMK A01 T01320123  RH  094%=      5-min Rain = 0
KCL2 101221Z 23010KT 13/12 A2981 RMK A01 T01320123  RH  094%=      5-min Rain = 0
KCL2 101222Z 23011KT 13/12 A2981 RMK A01 T01320123  RH  094%=      5-min Rain = 0
KCL2 101223Z 23010KT 13/12 A2981 RMK A01 T01320123  RH  094%=      5-min Rain = 0
KCL2 101224Z 23010KT 13/12 A2981 RMK A01 T01310122  RH  094%=      5-min Rain = 0
KCL2 101225Z 23012KT 13/12 A2981 RMK A01 T01320123  RH  094%=      5-min Rain = 0
KCL2 101226Z 23012KT 13/12 A2981 RMK A01 T01320123  RH  094%=      5-min Rain = 0
KCL2 101227Z 23011KT 13/12 A2981 RMK A01 T01320123  RH  094%=      5-min Rain = 0
KCL2 101228Z 23012KT 13/12 A2981 RMK A01 T01330123  RH  094%=      5-min Rain = 0
KCL2 101229Z 23011KT 13/12 A2981 RMK A01 T01330123  RH  094%=      5-min Rain = 0
KCL2 101230Z 23011KT 13/12 A2981 RMK A01 T01330123  RH  094%=      5-min Rain = 0
KCL2 101231Z 23011KT 13/12 A2981 RMK A01 T01330123  RH  094%=      5-min Rain = 0
KCL2 101232Z 23012KT 13/12 A2981 RMK A01 T01330123  RH  094%=      5-min Rain = 0
KCL2 101233Z 23011KT 13/12 A2981 RMK A01 T01330123  RH  094%=      5-min Rain = 0
KCL2 101234Z 23011KT 13/12 A2981 RMK A01 T01330123  RH  094%=      5-min Rain = 0
KCL2 101235Z 23012KT 13/12 A2982 RMK A01 T01330123  RH  094%=      5-min Rain = 0
KCL2 101236Z 23011KT 13/12 A2982 RMK A01 T01330123  RH  094%=      5-min Rain = 0
KCL2 101237Z 23010KT 13/12 A2982 RMK A01 T01330123  RH  093%=      5-min Rain = 0
KCL2 101238Z 23011KT 13/12 A2981 RMK A01 T01330123  RH  093%=      5-min Rain = 0
KCL2 101239Z 23011KT 13/12 A2981 RMK A01 T01330123  RH  093%=      5-min Rain = 0
KCL2 101240Z 23013KT 13/12 A2981 RMK A01 T01330122  RH  094%=      5-min Rain = 0
KCL2 101241Z 23012KT 13/12 A2981 RMK A01 T01330123  RH  094%=      5-min Rain = 0
KCL2 101242Z 23012G17KT 13/12 A2982 RMK A01 T01330123  RH  093%=      5-min Rain = 0
KCL2 101243Z 23013KT 13/12 A2981 RMK A01 T01330123  RH  093%=      5-min Rain = 0
KCL2 101244Z 22011KT 13/12 A2981 RMK A01 T01340123  RH  093%=      5-min Rain = 0
KCL2 101245Z 23012KT 13/12 A2981 RMK A01 T01340123  RH  093%=      5-min Rain = 0
KCL2 101246Z 23010KT 13/12 A2982 RMK A01 T01340123  RH  093%=      5-min Rain = 0
KCL2 101247Z 23011KT 13/12 A2982 RMK A01 T01340123  RH  093%=      5-min Rain = 0
KCL2 101248Z 23012KT 13/12 A2982 RMK A01 T01340123  RH  093%=      5-min Rain = 0
KCL2 101249Z 22011KT 13/12 A2981 RMK A01 T01340123  RH  093%=      5-min Rain = 0
KCL2 101250Z 23012KT 13/12 A2981 RMK A01 T01330123  RH  093%=      5-min Rain = 0
KCL2 101251Z 22010KT 13/12 A2981 RMK A01 T01340123  RH  093%=      5-min Rain = 0
KCL2 101252Z 23011KT 13/12 A2981 RMK A01 T01340123  RH  093%=      5-min Rain = 0
KCL2 101253Z 22010KT 13/12 A2981 RMK A01 T01340123  RH  093%=      5-min Rain = 0
KCL2 101254Z 22012KT 13/12 A2981 RMK A01 T01340123  RH  093%=      5-min Rain = 0
KCL2 101255Z 22010KT 13/12 A2981 RMK A01 T01340123  RH  093%=      5-min Rain = 0
KCL2 101256Z 22010KT 13/12 A2981 RMK A01 T01340123  RH  093%=      5-min Rain = 0
KCL2 101257Z 22010KT 13/12 A2981 RMK A01 T01340123  RH  093%=      5-min Rain = 0
KCL2 101258Z 22010KT 13/12 A2981 RMK A01 T01340123  RH  093%=      5-min Rain = 0
KCL2 101259Z 23010KT 13/12 A2981 RMK A01 T01340123  RH  093%=      5-min Rain = 0
KCL2 101300Z 22011KT 13/12 A2981 RMK A01 T01340123  RH  093%=      5-min Rain = 0
KCL2 101301Z 23011KT 13/12 A2981 RMK A01 T01340123  RH  093%=      5-min Rain = 0
KCL2 101302Z 23010KT 13/12 A2981 RMK A01 T01340123  RH  093%=      5-min Rain = 0
KCL2 101303Z 23010KT 13/12 A2981 RMK A01 T01340123  RH  093%=      5-min Rain = 0
KCL2 101304Z 23011KT 13/12 A2981 RMK A01 T01340123  RH  093%=      5-min Rain = 0
KCL2 101305Z 23010KT 13/12 A2981 RMK A01 T01340123  RH  093%=      5-min Rain = 0
KCL2 101306Z 23010KT 13/12 A2981 RMK A01 T01340122  RH  093%=      5-min Rain = 0
KCL2 101307Z 23010KT 13/12 A2981 RMK A01 T01330122  RH  093%=      5-min Rain = 0
KCL2 101308Z 22010KT 13/12 A2981 RMK A01 T01340123  RH  093%=      5-min Rain = 0
KCL2 101309Z 23010KT 13/12 A2981 RMK A01 T01330123  RH  093%=      5-min Rain = 0
KCL2 101310Z 23010KT 13/12 A2981 RMK A01 T01330123  RH  093%=      5-min Rain = 0
KCL2 101311Z 23011KT 13/12 A2981 RMK A01 T01340123  RH  093%=      5-min Rain = 0
KCL2 101312Z 23011KT 13/12 A2981 RMK A01 T01330123  RH  093%=      5-min Rain = 0
KCL2 101313Z 23011KT 13/12 A2981 RMK A01 T01340123  RH  093%=      5-min Rain = 0
KCL2 101314Z 23009KT 13/12 A2981 RMK A01 T01340123  RH  093%=      5-min Rain = 0
KCL2 101315Z 23010KT 13/12 A2981 RMK A01 T01330122  RH  093%=      5-min Rain = 0
KCL2 101316Z 23010KT 13/12 A2981 RMK A01 T01330122  RH  093%=      5-min Rain = 0
KCL2 101317Z 23010KT 13/12 A2981 RMK A01 T01330122  RH  093%=      5-min Rain = 0
KCL2 101318Z 23011KT 13/12 A2981 RMK A01 T01320122  RH  093%=      5-min Rain = 0
KCL2 101319Z 23011KT 13/12 A2981 RMK A01 T01330122  RH  093%=      5-min Rain = 0
KCL2 101320Z 23012KT 13/12 A2981 RMK A01 T01330123  RH  093%=      5-min Rain = 0
KCL2 101321Z 23011KT 13/12 A2981 RMK A01 T01340123  RH  093%=      5-min Rain = 0
KCL2 101322Z 23011KT 13/12 A2981 RMK A01 T01340123  RH  093%=      5-min Rain = 0
KCL2 101323Z 23010KT 13/12 A2982 RMK A01 T01340123  RH  093%=      5-min Rain = 0
KCL2 101324Z 23011KT 13/12 A2982 RMK A01 T01340122  RH  093%=      5-min Rain = 0
KCL2 101325Z 23011KT 13/12 A2981 RMK A01 T01340123  RH  093%=      5-min Rain = 0
KCL2 101326Z 23010KT 13/12 A2981 RMK A01 T01340123  RH  093%=      5-min Rain = 0
KCL2 101327Z 23010KT 13/12 A2982 RMK A01 T01340123  RH  093%=      5-min Rain = 0
KCL2 101328Z 23011KT 13/12 A2982 RMK A01 T01340122  RH  093%=      5-min Rain = 0
KCL2 101329Z 23013KT 14/12 A2982 RMK A01 T01350123  RH  093%=      5-min Rain = 0
KCL2 101330Z 23012KT 14/12 A2982 RMK A01 T01350124  RH  093%=      5-min Rain = 0
KCL2 101331Z 23012KT 14/12 A2982 RMK A01 T01360124  RH  092%=      5-min Rain = 0
KCL2 101332Z 23013KT 14/12 A2982 RMK A01 T01360124  RH  092%=      5-min Rain = 0
KCL2 101333Z 23012KT 14/12 A2982 RMK A01 T01360124  RH  092%=      5-min Rain = 0
KCL2 101334Z 23012KT 14/12 A2982 RMK A01 T01370124  RH  092%=      5-min Rain = 0
KCL2 101335Z 23011KT 14/12 A2982 RMK A01 T01370124  RH  092%=      5-min Rain = 0
KCL2 101336Z 23011KT 14/12 A2982 RMK A01 T01370124  RH  092%=      5-min Rain = 0
KCL2 101337Z 23011KT 14/12 A2982 RMK A01 T01370124  RH  092%=      5-min Rain = 0
KCL2 101338Z 23013KT 14/13 A2982 RMK A01 T01380125  RH  092%=      5-min Rain = 0
KCL2 101339Z 23010KT 14/13 A2982 RMK A01 T01380125  RH  092%=      5-min Rain = 0
KCL2 101340Z 23010KT 14/13 A2982 RMK A01 T01390125  RH  092%=      5-min Rain = 0
KCL2 101341Z 23010KT 14/13 A2982 RMK A01 T01380125  RH  092%=      5-min Rain = 0
KCL2 101342Z 23012KT 14/13 A2982 RMK A01 T01390125  RH  092%=      5-min Rain = 0
KCL2 101343Z 23012KT 14/13 A2982 RMK A01 T01390126  RH  092%=      5-min Rain = 0
KCL2 101344Z 23011KT 14/13 A2982 RMK A01 T01390126  RH  092%=      5-min Rain = 0
KCL2 101345Z 23012KT 14/13 A2982 RMK A01 T01400126  RH  092%=      5-min Rain = 0
KCL2 101346Z 22011KT 14/13 A2982 RMK A01 T01400126  RH  091%=      5-min Rain = 0
KCL2 101347Z 23013KT 14/13 A2982 RMK A01 T01400126  RH  091%=      5-min Rain = 0
KCL2 101348Z 23012KT 14/13 A2982 RMK A01 T01410127  RH  091%=      5-min Rain = 0
KCL2 101349Z 23013KT 14/13 A2982 RMK A01 T01410127  RH  091%=      5-min Rain = 0
KCL2 101350Z 23012KT 14/13 A2982 RMK A01 T01410127  RH  091%=      5-min Rain = 0
KCL2 101351Z 23012KT 14/13 A2982 RMK A01 T01420127  RH  091%=      5-min Rain = 0
KCL2 101352Z 22012G17KT 14/13 A2982 RMK A01 T01420128  RH  091%=      5-min Rain = 0
KCL2 101353Z 23011KT 14/13 A2982 RMK A01 T01430129  RH  091%=      5-min Rain = 0
KCL2 101354Z 23014KT 14/13 A2982 RMK A01 T01430128  RH  091%=      5-min Rain = 0
KCL2 101355Z 23012KT 14/13 A2982 RMK A01 T01440128  RH  090%=      5-min Rain = 0
KCL2 101356Z 22013KT 15/13 A2982 RMK A01 T01450129  RH  090%=      5-min Rain = 0
KCL2 101357Z 23012KT 15/13 A2982 RMK A01 T01450129  RH  090%=      5-min Rain = 0
KCL2 101358Z 22011KT 15/13 A2982 RMK A01 T01460129  RH  090%=      5-min Rain = 0
KCL2 101359Z 22012KT 15/13 A2982 RMK A01 T01470130  RH  090%=      5-min Rain = 0
KCL2 101400Z 23011KT 15/13 A2982 RMK A01 T01470130  RH  089%=      5-min Rain = 0
KCL2 101401Z 23011KT 15/13 A2982 RMK A01 T01480131  RH  089%=      5-min Rain = 0
KCL2 101402Z 23010KT 15/13 A2982 RMK A01 T01490131  RH  089%=      5-min Rain = 0
KCL2 101403Z 23012KT 15/13 A2982 RMK A01 T01490130  RH  089%=      5-min Rain = 0
KCL2 101404Z 22011KT 15/13 A2982 RMK A01 T01490130  RH  088%=      5-min Rain = 0
KCL2 101405Z 22012KT 15/13 A2981 RMK A01 T01500131  RH  088%=      5-min Rain = 0
KCL2 101406Z 22011KT 15/13 A2981 RMK A01 T01500131  RH  088%=      5-min Rain = 0
KCL2 101407Z 22012KT 15/13 A2981 RMK A01 T01500131  RH  088%=      5-min Rain = 0
KCL2 101408Z 22012KT 15/13 A2981 RMK A01 T01510131  RH  088%=      5-min Rain = 0
KCL2 101409Z 22012KT 15/13 A2981 RMK A01 T01510131  RH  088%=      5-min Rain = 0
KCL2 101410Z 22012KT 15/13 A2981 RMK A01 T01520132  RH  088%=      5-min Rain = 0
KCL2 101411Z 23013KT 15/13 A2981 RMK A01 T01530132  RH  087%=      5-min Rain = 0
KCL2 101412Z 23013KT 15/13 A2982 RMK A01 T01540133  RH  087%=      5-min Rain = 0
KCL2 101413Z 22013KT 16/13 A2981 RMK A01 T01550134  RH  087%=      5-min Rain = 0
KCL2 101414Z 22011KT 16/13 A2981 RMK A01 T01550133  RH  086%=      5-min Rain = 0
KCL2 101415Z 23013KT 16/13 A2981 RMK A01 T01550132  RH  086%=      5-min Rain = 0
KCL2 101416Z 23013KT 16/13 A2981 RMK A01 T01550132  RH  086%=      5-min Rain = 0
KCL2 101417Z 22013KT 16/13 A2981 RMK A01 T01550132  RH  086%=      5-min Rain = 0
KCL2 101418Z 22013KT 16/13 A2981 RMK A01 T01550132  RH  086%=      5-min Rain = 0
KCL2 101419Z 22012G17KT 16/13 A2981 RMK A01 T01550132  RH  086%=      5-min Rain = 0
KCL2 101420Z 22012G17KT 16/13 A2981 RMK A01 T01550132  RH  086%=      5-min Rain = 0
KCL2 101421Z 22011KT 16/13 A2981 RMK A01 T01550132  RH  086%=      5-min Rain = 0
KCL2 101422Z 22013KT 16/13 A2981 RMK A01 T01550132  RH  086%=      5-min Rain = 0
KCL2 101423Z 22011KT 16/13 A2981 RMK A01 T01550132  RH  086%=      5-min Rain = 0
KCL2 101424Z 22011KT 16/13 A2981 RMK A01 T01550132  RH  086%=      5-min Rain = 0
KCL2 101425Z 22013KT 16/13 A2981 RMK A01 T01550132  RH  086%=      5-min Rain = 0
KCL2 101426Z 22011KT 16/13 A2981 RMK A01 T01550132  RH  086%=      5-min Rain = 0
KCL2 101427Z 22013KT 16/13 A2981 RMK A01 T01550132  RH  086%=      5-min Rain = 0
KCL2 101428Z 22010KT 16/13 A2981 RMK A01 T01550132  RH  086%=      5-min Rain = 0
KCL2 101429Z 22010KT 16/13 A2981 RMK A01 T01550133  RH  086%=      5-min Rain = 0
KCL2 101430Z 22010KT 16/13 A2981 RMK A01 T01560133  RH  086%=      5-min Rain = 0
KCL2 101431Z 22011KT 16/13 A2981 RMK A01 T01560133  RH  086%=      5-min Rain = 0
KCL2 101432Z 22014KT 16/13 A2981 RMK A01 T01570133  RH  086%=      5-min Rain = 0
KCL2 101433Z 22012KT 16/13 A2981 RMK A01 T01570133  RH  086%=      5-min Rain = 0
KCL2 101434Z 22012KT 16/13 A2981 RMK A01 T01570133  RH  086%=      5-min Rain = 0
KCL2 101435Z 22012KT 16/13 A2981 RMK A01 T01570133  RH  085%=      5-min Rain = 0
KCL2 101436Z 21011KT 16/13 A2981 RMK A01 T01570133  RH  085%=      5-min Rain = 0
KCL2 101437Z 22011KT 16/13 A2981 RMK A01 T01580133  RH  086%=      5-min Rain = 0
KCL2 101438Z 22012KT 16/13 A2981 RMK A01 T01580134  RH  085%=      5-min Rain = 0
KCL2 101439Z 22011KT 16/13 A2981 RMK A01 T01580134  RH  085%=      5-min Rain = 0
KCL2 101440Z 22011KT 16/13 A2981 RMK A01 T01580134  RH  085%=      5-min Rain = 0
KCL2 101441Z 22012KT 16/13 A2981 RMK A01 T01590134  RH  085%=      5-min Rain = 0
KCL2 101442Z 22012KT 16/13 A2982 RMK A01 T01590134  RH  085%=      5-min Rain = 0
KCL2 101443Z 22012KT 16/13 A2981 RMK A01 T01590134  RH  085%=      5-min Rain = 0
KCL2 101444Z 22012KT 16/13 A2981 RMK A01 T01590134  RH  085%=      5-min Rain = 0
KCL2 101445Z 22010KT 16/14 A2982 RMK A01 T01600135  RH  085%=      5-min Rain = 0
KCL2 101446Z 22014KT 16/14 A2981 RMK A01 T01600135  RH  085%=      5-min Rain = 0
KCL2 101447Z 22013KT 16/13 A2982 RMK A01 T01610134  RH  084%=      5-min Rain = 0
KCL2 101448Z 22015KT 16/13 A2982 RMK A01 T01610134  RH  084%=      5-min Rain = 0
KCL2 101449Z 22011KT 16/14 A2982 RMK A01 T01610135  RH  084%=      5-min Rain = 0
KCL2 101450Z 22010KT 16/14 A2982 RMK A01 T01620136  RH  084%=      5-min Rain = 0
KCL2 101451Z 22011KT 16/14 A2982 RMK A01 T01630136  RH  084%=      5-min Rain = 0
KCL2 101452Z 22012G17KT 16/14 A2982 RMK A01 T01630136  RH  084%=      5-min Rain = 0
KCL2 101453Z 22010KT 16/14 A2982 RMK A01 T01630136  RH  084%=      5-min Rain = 0
KCL2 101454Z 23013KT 16/14 A2982 RMK A01 T01640136  RH  084%=      5-min Rain = 0
KCL2 101455Z 22011KT 17/14 A2982 RMK A01 T01650136  RH  083%=      5-min Rain = 0
KCL2 101456Z 22012KT 17/14 A2982 RMK A01 T01650136  RH  083%=      5-min Rain = 0
KCL2 101457Z 23011KT 17/14 A2982 RMK A01 T01660136  RH  083%=      5-min Rain = 0
KCL2 101458Z 22010KT 17/14 A2982 RMK A01 T01660137  RH  083%=      5-min Rain = 0
KCL2 101459Z 22011KT 17/14 A2982 RMK A01 T01670137  RH  083%=      5-min Rain = 0
KCL2 101500Z 22008KT 17/14 A2982 RMK A01 T01670138  RH  083%=      5-min Rain = 0
KCL2 101501Z 22009KT 17/14 A2982 RMK A01 T01680137  RH  082%=      5-min Rain = 0
KCL2 101502Z 22009KT 17/14 A2982 RMK A01 T01680137  RH  082%=      5-min Rain = 0
KCL2 101503Z 23008KT 17/14 A2982 RMK A01 T01680138  RH  082%=      5-min Rain = 0
KCL2 101504Z 22012G17KT 17/14 A2982 RMK A01 T01690137  RH  082%=      5-min Rain = 0
KCL2 101505Z 22009KT 17/14 A2982 RMK A01 T01680136  RH  081%=      5-min Rain = 0
KCL2 101506Z 23009KT 17/14 A2982 RMK A01 T01680138  RH  082%=      5-min Rain = 0
KCL2 101507Z 22010KT 17/14 A2982 RMK A01 T01690137  RH  082%=      5-min Rain = 0
KCL2 101508Z 22010KT 17/14 A2982 RMK A01 T01700138  RH  082%=      5-min Rain = 0
KCL2 101509Z 22012KT 17/14 A2982 RMK A01 T01710139  RH  081%=      5-min Rain = 0
KCL2 101510Z 23014KT 17/14 A2982 RMK A01 T01720136  RH  080%=      5-min Rain = 0
KCL2 101511Z 23014KT 17/14 A2982 RMK A01 T01700135  RH  080%=      5-min Rain = 0
KCL2 101512Z 22013KT 17/14 A2982 RMK A01 T01690135  RH  080%=      5-min Rain = 0
KCL2 101513Z 22013KT 17/14 A2982 RMK A01 T01690135  RH  081%=      5-min Rain = 0
KCL2 101514Z 22013KT 17/14 A2982 RMK A01 T01690136  RH  081%=      5-min Rain = 0
KCL2 101515Z 23014KT 17/14 A2982 RMK A01 T01690136  RH  081%=      5-min Rain = 0
KCL2 101516Z 22012KT 17/14 A2982 RMK A01 T01700136  RH  081%=      5-min Rain = 0
KCL2 101517Z 23010KT 17/14 A2982 RMK A01 T01700137  RH  081%=      5-min Rain = 0
KCL2 101518Z 22009KT 17/14 A2982 RMK A01 T01720138  RH  080%=      5-min Rain = 0
KCL2 101519Z 22011KT 17/14 A2982 RMK A01 T01740138  RH  079%=      5-min Rain = 0
KCL2 101520Z 24014KT 17/14 A2982 RMK A01 T01740136  RH  078%=      5-min Rain = 0
KCL2 101521Z 23013KT 17/14 A2982 RMK A01 T01740135  RH  078%=      5-min Rain = 0
KCL2 101522Z 23012KT 17/14 A2982 RMK A01 T01730135  RH  078%=      5-min Rain = 0
KCL2 101523Z 23009KT 17/14 A2982 RMK A01 T01730136  RH  079%=      5-min Rain = 0
KCL2 101524Z 24011G16KT 17/14 A2982 RMK A01 T01730136  RH  078%=      5-min Rain = 0
KCL2 101525Z 23012KT 17/13 A2982 RMK A01 T01740134  RH  077%=      5-min Rain = 0
KCL2 101526Z 22010KT 17/14 A2982 RMK A01 T01740135  RH  078%=      5-min Rain = 0
KCL2 101527Z 23009KT 18/14 A2982 RMK A01 T01750136  RH  078%=      5-min Rain = 0
KCL2 101528Z 23009KT 18/14 A2982 RMK A01 T01760137  RH  078%=      5-min Rain = 0
KCL2 101529Z 24010KT 18/14 A2982 RMK A01 T01780137  RH  077%=      5-min Rain = 0
KCL2 101530Z 23013KT 18/14 A2982 RMK A01 T01800136  RH  076%=      5-min Rain = 0
KCL2 101531Z 22012KT 18/14 A2982 RMK A01 T01810136  RH  075%=      5-min Rain = 0
KCL2 101532Z 22010KT 18/14 A2982 RMK A01 T01810137  RH  075%=      5-min Rain = 0
KCL2 101533Z 22011KT 18/14 A2982 RMK A01 T01830138  RH  075%=      5-min Rain = 0
KCL2 101534Z 22013KT 18/14 A2982 RMK A01 T01840136  RH  074%=      5-min Rain = 0
KCL2 101535Z 22011KT 18/14 A2982 RMK A01 T01840137  RH  074%=      5-min Rain = 0
KCL2 101536Z 22010KT 18/14 A2982 RMK A01 T01840136  RH  074%=      5-min Rain = 0
KCL2 101537Z 23011KT 19/14 A2981 RMK A01 T01850137  RH  073%=      5-min Rain = 0
KCL2 101538Z 23010KT 19/14 A2981 RMK A01 T01860136  RH  072%=      5-min Rain = 0
KCL2 101539Z 22009G14KT 19/14 A2981 RMK A01 T01860136  RH  073%=      5-min Rain = 0
KCL2 101540Z 23010KT 19/13 A2981 RMK A01 T01870134  RH  071%=      5-min Rain = 0
KCL2 101541Z 23010KT 19/14 A2981 RMK A01 T01860135  RH  072%=      5-min Rain = 0
KCL2 101542Z 24011KT 19/13 A2981 RMK A01 T01850134  RH  072%=      5-min Rain = 0
KCL2 101543Z 23009KT 19/13 A2981 RMK A01 T01850134  RH  072%=      5-min Rain = 0
KCL2 101544Z 23008KT 19/14 A2981 RMK A01 T01860136  RH  072%=      5-min Rain = 0
KCL2 101545Z 23008KT 19/14 A2981 RMK A01 T01910136  RH  071%=      5-min Rain = 0
KCL2 101546Z 21009KT 19/14 A2981 RMK A01 T01930136  RH  069%=      5-min Rain = 0
KCL2 101547Z 22010KT 20/13 A2981 RMK A01 T01950134  RH  068%=      5-min Rain = 0
KCL2 101548Z 21010KT 20/13 A2981 RMK A01 T01960134  RH  068%=      5-min Rain = 0
KCL2 101549Z 21010KT 20/13 A2981 RMK A01 T01950133  RH  067%=      5-min Rain = 0
KCL2 101550Z 22009KT 20/13 A2981 RMK A01 T01950134  RH  068%=      5-min Rain = 0
KCL2 101551Z 22010KT 20/13 A2981 RMK A01 T01960132  RH  067%=      5-min Rain = 0
KCL2 101552Z 22010KT 20/13 A2981 RMK A01 T01960132  RH  067%=      5-min Rain = 0
KCL2 101553Z 23010KT 20/13 A2981 RMK A01 T01950133  RH  067%=      5-min Rain = 0
KCL2 101554Z 22011KT 20/13 A2981 RMK A01 T01950132  RH  067%=      5-min Rain = 0
KCL2 101555Z 22007KT 19/13 A2981 RMK A01 T01940133  RH  068%=      5-min Rain = 0
KCL2 101556Z 22008KT 20/14 A2981 RMK A01 T01960135  RH  068%=      5-min Rain = 0
KCL2 101557Z 24011KT 20/13 A2981 RMK A01 T01980134  RH  066%=      5-min Rain = 0
KCL2 101558Z 23011KT 20/13 A2981 RMK A01 T01990131  RH  065%=      5-min Rain = 0
KCL2 101559Z 24010KT 20/13 A2981 RMK A01 T01990131  RH  065%=      5-min Rain = 0
KCL2 101600Z 25010KT 20/13 A2981 RMK A01 T01990131  RH  065%=      5-min Rain = 0
KCL2 101601Z 23010KT 20/13 A2981 RMK A01 T02000133  RH  065%=      5-min Rain = 0
KCL2 101602Z 25009KT 20/13 A2981 RMK A01 T02010133  RH  065%=      5-min Rain = 0
KCL2 101603Z 24010KT 20/13 A2981 RMK A01 T02010133  RH  065%=      5-min Rain = 0
KCL2 101604Z 24008KT 20/13 A2981 RMK A01 T02010133  RH  065%=      5-min Rain = 0
KCL2 101605Z 24010KT 20/13 A2981 RMK A01 T02020133  RH  065%=      5-min Rain = 0
KCL2 101606Z 24011KT 20/13 A2981 RMK A01 T02040132  RH  063%=      5-min Rain = 0
KCL2 101607Z 23011KT 20/13 A2981 RMK A01 T02040130  RH  062%=      5-min Rain = 0
KCL2 101608Z 24011KT 20/13 A2981 RMK A01 T02030131  RH  063%=      5-min Rain = 0
KCL2 101609Z 24011KT 20/13 A2981 RMK A01 T02030131  RH  063%=      5-min Rain = 0
KCL2 101610Z 25011KT 20/13 A2981 RMK A01 T02020129  RH  063%=      5-min Rain = 0
KCL2 101611Z 24011KT 20/13 A2981 RMK A01 T02040129  RH  062%=      5-min Rain = 0
KCL2 101612Z 24011KT 21/13 A2981 RMK A01 T02050128  RH  061%=      5-min Rain = 0
KCL2 101613Z 24012KT 21/13 A2981 RMK A01 T02060129  RH  061%=      5-min Rain = 0
KCL2 101614Z 24009KT 21/13 A298 RMK A01 T02060128  RH  061%=      5-min Rain = 0
KCL2 101615Z 25008KT 21/13 A298 RMK A01 T02060130  RH  062%=      5-min Rain = 0
KCL2 101616Z 24011KT 21/13 A298 RMK A01 T02090129  RH  060%=      5-min Rain = 0
KCL2 101617Z 23010KT 21/13 A298 RMK A01 T02090128  RH  060%=      5-min Rain = 0
KCL2 101618Z 22010KT 21/13 A298 RMK A01 T02080127  RH  060%=      5-min Rain = 0
KCL2 101619Z 23010KT 21/13 A298 RMK A01 T02090128  RH  060%=      5-min Rain = 0
KCL2 101620Z 23009KT 21/13 A298 RMK A01 T02090128  RH  060%=      5-min Rain = 0
KCL2 101621Z 24006KT 21/13 A298 RMK A01 T02080130  RH  061%=      5-min Rain = 0
KCL2 101622Z 24009G14KT 21/13 A298 RMK A01 T02100129  RH  060%=      5-min Rain = 0
KCL2 101623Z 24011KT 21/13 A298 RMK A01 T02110128  RH  059%=      5-min Rain = 0
KCL2 101624Z 24009KT 21/13 A298 RMK A01 T02120126  RH  058%=      5-min Rain = 0
KCL2 101625Z 23009KT 21/13 A298 RMK A01 T02120125  RH  057%=      5-min Rain = 0
KCL2 101626Z 24009KT 21/13 A298 RMK A01 T02130125  RH  057%=      5-min Rain = 0
KCL2 101627Z 23010KT 21/13 A298 RMK A01 T02120128  RH  058%=      5-min Rain = 0
KCL2 101628Z 22009KT 21/13 A298 RMK A01 T02130128  RH  059%=      5-min Rain = 0
KCL2 101629Z 23006KT 21/13 A298 RMK A01 T02110127  RH  059%=      5-min Rain = 0
KCL2 101630Z 24007KT 21/13 A298 RMK A01 T02090129  RH  060%=      5-min Rain = 0
KCL2 101631Z 24006KT 21/13 A298 RMK A01 T02100128  RH  059%=      5-min Rain = 0
KCL2 101632Z 23007KT 21/13 A298 RMK A01 T02110127  RH  059%=      5-min Rain = 0
KCL2 101633Z 24007KT 21/12 A298 RMK A01 T02110124  RH  058%=      5-min Rain = 0
KCL2 101634Z 24008KT 21/12 A298 RMK A01 T02110124  RH  057%=      5-min Rain = 0
KCL2 101635Z 23008KT 21/13 A298 RMK A01 T02110125  RH  058%=      5-min Rain = 0
KCL2 101636Z 23008KT 21/12 A298 RMK A01 T02120121  RH  056%=      5-min Rain = 0
KCL2 101637Z 24008KT 21/12 A298 RMK A01 T02120123  RH  057%=      5-min Rain = 0
KCL2 101638Z 23009KT 21/12 A298 RMK A01 T02110124  RH  058%=      5-min Rain = 0
KCL2 101639Z 24009KT 21/12 A298 RMK A01 T02110123  RH  057%=      5-min Rain = 0
KCL2 101640Z 24008KT 21/12 A298 RMK A01 T02110122  RH  057%=      5-min Rain = 0
KCL2 101641Z 23007KT 21/12 A298 RMK A01 T02110120  RH  056%=      5-min Rain = 0
KCL2 101642Z 22006KT 21/12 A298 RMK A01 T02110122  RH  057%=      5-min Rain = 0
KCL2 101643Z 24007KT 21/12 A298 RMK A01 T02120124  RH  057%=      5-min Rain = 0
KCL2 101644Z 23008KT 21/13 A298 RMK A01 T02140125  RH  057%=      5-min Rain = 0
KCL2 101645Z 24006KT 21/12 A298 RMK A01 T02140124  RH  056%=      5-min Rain = 0
KCL2 101646Z 22006KT 21/12 A298 RMK A01 T02140124  RH  057%=      5-min Rain = 0
KCL2 101647Z 23007KT 21/12 A298 RMK A01 T02130124  RH  057%=      5-min Rain = 0
KCL2 101648Z 23005KT 21/12 A298 RMK A01 T02130122  RH  056%=      5-min Rain = 0
KCL2 101649Z 26005KT 22/13 A298 RMK A01 T02150125  RH  057%=      5-min Rain = 0
KCL2 101650Z 24005KT 22/13 A298 RMK A01 T02180125  RH  055%=      5-min Rain = 0
KCL2 101651Z 20006KT 22/13 A298 RMK A01 T02220126  RH  055%=      5-min Rain = 0
KCL2 101652Z 21007KT 22/12 A298 RMK A01 T02230124  RH  053%=      5-min Rain = 0
KCL2 101653Z 24006KT 23/12 A298 RMK A01 T02250122  RH  052%=      5-min Rain = 0
KCL2 101654Z 22007KT 23/13 A298 RMK A01 T02250125  RH  053%=      5-min Rain = 0
KCL2 101655Z 24008KT 23/13 A298 RMK A01 T02280125  RH  052%=      5-min Rain = 0
KCL2 101656Z 24007KT 23/12 A298 RMK A01 T02290121  RH  051%=      5-min Rain = 0
KCL2 101657Z 26007KT 23/12 A298 RMK A01 T02280122  RH  051%=      5-min Rain = 0
KCL2 101658Z 27005KT 23/12 A298 RMK A01 T02290120  RH  050%=      5-min Rain = 0
KCL2 101659Z 25009KT 23/12 A298 RMK A01 T02320120  RH  050%=      5-min Rain = 0
KCL2 101700Z 24010KT 23/12 A298 RMK A01 T02310121  RH  050%=      5-min Rain = 0
KCL2 101701Z 25008KT 23/12 A298 RMK A01 T02290119  RH  050%=      5-min Rain = 0
KCL2 101702Z 25008KT 23/12 A298 RMK A01 T02270119  RH  050%=      5-min Rain = 0
KCL2 101703Z 25009KT 23/12 A298 RMK A01 T02250117  RH  051%=      5-min Rain = 0
KCL2 101704Z 26008KT 22/12 A298 RMK A01 T02240116  RH  050%=      5-min Rain = 0
KCL2 101705Z 24010KT 22/12 A298 RMK A01 T02240117  RH  051%=      5-min Rain = 0
KCL2 101706Z 24010KT 22/12 A298 RMK A01 T02230120  RH  052%=      5-min Rain = 0
KCL2 101707Z 22009KT 22/12 A2981 RMK A01 T02220121  RH  053%=      5-min Rain = 0
KCL2 101708Z 23009KT 22/12 A2981 RMK A01 T02210123  RH  054%=      5-min Rain = 0
KCL2 101709Z 22009KT 22/12 A2981 RMK A01 T02200123  RH  054%=      5-min Rain = 0
KCL2 101710Z 22010KT 22/12 A2981 RMK A01 T02200123  RH  054%=      5-min Rain = 0
KCL2 101711Z 22009KT 22/12 A2981 RMK A01 T02190123  RH  054%=      5-min Rain = 0
KCL2 101712Z 24011KT 22/12 A2981 RMK A01 T02190121  RH  054%=      5-min Rain = 0
KCL2 101713Z 24010KT 22/12 A2981 RMK A01 T02190121  RH  054%=      5-min Rain = 0
KCL2 101714Z 24008KT 22/12 A2981 RMK A01 T02180121  RH  054%=      5-min Rain = 0
KCL2 101715Z 24007KT 22/12 A2981 RMK A01 T02180121  RH  054%=      5-min Rain = 0
KCL2 101716Z 25008KT 22/12 A2981 RMK A01 T02190123  RH  054%=      5-min Rain = 0
KCL2 101717Z 26010KT 22/12 A2981 RMK A01 T02230121  RH  052%=      5-min Rain = 0
KCL2 101718Z 25010KT 23/12 A2981 RMK A01 T02250121  RH  052%=      5-min Rain = 0
KCL2 101719Z 24008KT 23/12 A2981 RMK A01 T02260123  RH  052%=      5-min Rain = 0
KCL2 101720Z 24008KT 23/12 A2981 RMK A01 T02260122  RH  052%=      5-min Rain = 0
KCL2 101721Z 24008KT 23/12 A2981 RMK A01 T02280122  RH  051%=      5-min Rain = 0
KCL2 101722Z 25008KT 23/12 A298 RMK A01 T02280123  RH  051%=      5-min Rain = 0
KCL2 101723Z 26010KT 23/12 A298 RMK A01 T02310120  RH  050%=      5-min Rain = 0
KCL2 101724Z 26010KT 23/12 A298 RMK A01 T02320120  RH  049%=      5-min Rain = 0
KCL2 101725Z 27010KT 23/12 A298 RMK A01 T02330120  RH  049%=      5-min Rain = 0
KCL2 101726Z 27010KT 24/12 A298 RMK A01 T02350120  RH  048%=      5-min Rain = 0
KCL2 101727Z 27011KT 24/12 A298 RMK A01 T02360118  RH  048%=      5-min Rain = 0
KCL2 101728Z 26012KT 24/12 A298 RMK A01 T02360117  RH  047%=      5-min Rain = 0
KCL2 101729Z 25011KT 24/12 A298 RMK A01 T02350115  RH  047%=      5-min Rain = 0
KCL2 101730Z 26010KT 23/11 A298 RMK A01 T02340114  RH  047%=      5-min Rain = 0
KCL2 101731Z 25013KT 23/11 A298 RMK A01 T02340114  RH  047%=      5-min Rain = 0
KCL2 101732Z 24007KT 23/11 A298 RMK A01 T02340113  RH  047%=      5-min Rain = 0
KCL2 101733Z 26007KT 24/12 A298 RMK A01 T02370118  RH  047%=      5-min Rain = 0
KCL2 101734Z 26010KT 24/12 A298 RMK A01 T02440116  RH  045%=      5-min Rain = 0
KCL2 101735Z 25010KT 25/11 A298 RMK A01 T02450111  RH  043%=      5-min Rain = 0
KCL2 101736Z 24009KT 24/11 A298 RMK A01 T02440113  RH  044%=      5-min Rain = 0
KCL2 101737Z 26009KT 24/11 A298 RMK A01 T02440111  RH  043%=      5-min Rain = 0
KCL2 101738Z 26009KT 25/11 A298 RMK A01 T02450111  RH  043%=      5-min Rain = 0
KCL2 101739Z 24013KT 24/12 A298 RMK A01 T02440119  RH  045%=      5-min Rain = 0
KCL2 101740Z 23012KT 24/12 A298 RMK A01 T02400122  RH  048%=      5-min Rain = 0
KCL2 101741Z 22012KT 24/12 A298 RMK A01 T02380123  RH  049%=      5-min Rain = 0
KCL2 101742Z 23014KT 24/12 A298 RMK A01 T02360124  RH  049%=      5-min Rain = 0
KCL2 101743Z 23013KT 24/12 A298 RMK A01 T02350123  RH  049%=      5-min Rain = 0
KCL2 101744Z 22011KT 23/12 A298 RMK A01 T02340122  RH  049%=      5-min Rain = 0
KCL2 101745Z 24010KT 23/12 A298 RMK A01 T02330123  RH  050%=      5-min Rain = 0
KCL2 101746Z 23011KT 24/12 A298 RMK A01 T02370123  RH  049%=      5-min Rain = 0
KCL2 101747Z 23010KT 24/12 A2979 RMK A01 T02370122  RH  048%=      5-min Rain = 0
KCL2 101748Z 23009KT 24/12 A2979 RMK A01 T02410122  RH  047%=      5-min Rain = 0
KCL2 101749Z 25010KT 24/12 A2979 RMK A01 T02420118  RH  046%=      5-min Rain = 0
KCL2 101750Z 24009KT 24/11 A2979 RMK A01 T02410108  RH  043%=      5-min Rain = 0
KCL2 101751Z 25010KT 24/11 A2979 RMK A01 T02410110  RH  044%=      5-min Rain = 0
KCL2 101752Z 22009KT 24/12 A2979 RMK A01 T02420115  RH  045%=      5-min Rain = 0
KCL2 101753Z 24010KT 24/12 A2979 RMK A01 T02420117  RH  045%=      5-min Rain = 0
KCL2 101754Z 22011KT 24/12 A2979 RMK A01 T02420117  RH  046%=      5-min Rain = 0
KCL2 101755Z 21010KT 24/11 A2979 RMK A01 T02400114  RH  045%=      5-min Rain = 0
KCL2 101756Z 20010KT 24/11 A2979 RMK A01 T02370113  RH  046%=      5-min Rain = 0
KCL2 101757Z 22008KT 24/11 A2979 RMK A01 T02360113  RH  046%=      5-min Rain = 0
KCL2 101758Z 21009KT 24/11 A2979 RMK A01 T02360113  RH  046%=      5-min Rain = 0
KCL2 101759Z 23008KT 24/12 A2979 RMK A01 T02380116  RH  046%=      5-min Rain = 0
KCL2 101800Z 24009KT 24/11 A2979 RMK A01 T02410111  RH  044%=      5-min Rain = 0
KCL2 101801Z 23010KT 24/12 A2978 RMK A01 T02420117  RH  046%=      5-min Rain = 0
KCL2 101802Z 22011KT 24/12 A2978 RMK A01 T02400119  RH  047%=      5-min Rain = 0
KCL2 101803Z 22010KT 24/12 A2978 RMK A01 T02400119  RH  047%=      5-min Rain = 0
KCL2 101804Z 21010KT 24/12 A2978 RMK A01 T02370118  RH  047%=      5-min Rain = 0
KCL2 101805Z 21010KT 24/12 A2978 RMK A01 T02370121  RH  048%=      5-min Rain = 0
KCL2 101806Z 23009KT 24/12 A2978 RMK A01 T02380119  RH  047%=      5-min Rain = 0
KCL2 101807Z 22010KT 24/12 A2978 RMK A01 T02350118  RH  048%=      5-min Rain = 0
KCL2 101808Z 21009KT 23/12 A2978 RMK A01 T02340119  RH  048%=      5-min Rain = 0
KCL2 101809Z 20009KT 23/12 A2978 RMK A01 T02340119  RH  048%=      5-min Rain = 0
KCL2 101810Z 20010KT 23/12 A2978 RMK A01 T02340118  RH  048%=      5-min Rain = 0
KCL2 101811Z 20009KT 23/12 A2978 RMK A01 T02340118  RH  048%=      5-min Rain = 0
KCL2 101812Z 21007KT 23/12 A2978 RMK A01 T02340117  RH  048%=      5-min Rain = 0
KCL2 101813Z 21005KT 23/12 A2978 RMK A01 T02320118  RH  048%=      5-min Rain = 0
KCL2 101814Z 22006KT 23/12 A2978 RMK A01 T02340117  RH  048%=      5-min Rain = 0
KCL2 101815Z 22005KT 24/12 A2978 RMK A01 T02360116  RH  047%=      5-min Rain = 0
KCL2 101816Z 23008KT 24/12 A2978 RMK A01 T02380118  RH  047%=      5-min Rain = 0
KCL2 101817Z 23010KT 24/12 A2978 RMK A01 T02400116  RH  046%=      5-min Rain = 0
KCL2 101818Z 22009KT 24/12 A2978 RMK A01 T02370115  RH  046%=      5-min Rain = 0
KCL2 101819Z 23008KT 24/12 A2978 RMK A01 T02360118  RH  047%=      5-min Rain = 0
KCL2 101820Z 23007KT 24/12 A2978 RMK A01 T02400119  RH  047%=      5-min Rain = 0
KCL2 101821Z 21012KT 24/12 A2978 RMK A01 T02410118  RH  046%=      5-min Rain = 0
KCL2 101822Z 21008KT 24/12 A2978 RMK A01 T02390115  RH  046%=      5-min Rain = 0
KCL2 101823Z 23007KT 24/12 A2978 RMK A01 T02370115  RH  046%=      5-min Rain = 0
KCL2 101824Z 24007KT 24/11 A2978 RMK A01 T02360114  RH  046%=      5-min Rain = 0
KCL2 101825Z 24010KT 24/11 A2978 RMK A01 T02370113  RH  046%=      5-min Rain = 0
KCL2 101826Z 24009KT 24/11 A2978 RMK A01 T02390112  RH  045%=      5-min Rain = 0
KCL2 101827Z 24010KT 24/11 A2978 RMK A01 T02390113  RH  045%=      5-min Rain = 0
KCL2 101828Z 24008KT 24/11 A2978 RMK A01 T02410114  RH  045%=      5-min Rain = 0
KCL2 101829Z 24011KT 24/11 A2978 RMK A01 T02410113  RH  045%=      5-min Rain = 0
KCL2 101830Z 25009KT 24/11 A2978 RMK A01 T02410112  RH  044%=      5-min Rain = 0
KCL2 101831Z 25008KT 25/11 A2978 RMK A01 T02460113  RH  043%=      5-min Rain = 0
KCL2 101832Z 23010KT 25/11 A2978 RMK A01 T02470114  RH  043%=      5-min Rain = 0
KCL2 101833Z 23008KT 24/12 A2978 RMK A01 T02440115  RH  045%=      5-min Rain = 0
KCL2 101834Z 22010KT 24/12 A2978 RMK A01 T02430116  RH  045%=      5-min Rain = 0
KCL2 101835Z 24009KT 24/12 A2978 RMK A01 T02420117  RH  046%=      5-min Rain = 0
KCL2 101836Z 25011KT 24/12 A2978 RMK A01 T02410116  RH  045%=      5-min Rain = 0
KCL2 101837Z 23008KT 24/11 A2978 RMK A01 T02370114  RH  046%=      5-min Rain = 0
KCL2 101838Z 23012KT 24/11 A2978 RMK A01 T02360114  RH  046%=      5-min Rain = 0
KCL2 101839Z 25010KT 24/12 A2978 RMK A01 T02380115  RH  046%=      5-min Rain = 0
KCL2 101840Z 23011KT 24/12 A2978 RMK A01 T02430119  RH  046%=      5-min Rain = 0
KCL2 101841Z 23011KT 25/12 A2978 RMK A01 T02460118  RH  045%=      5-min Rain = 0
KCL2 101842Z 22011KT 25/12 A2978 RMK A01 T02480119  RH  044%=      5-min Rain = 0
KCL2 101843Z 23012KT 25/12 A2978 RMK A01 T02500119  RH  044%=      5-min Rain = 0
KCL2 101844Z 23010KT 25/12 A2978 RMK A01 T02510118  RH  043%=      5-min Rain = 0
KCL2 101845Z 25012KT 25/12 A2978 RMK A01 T02530117  RH  043%=      5-min Rain = 0
KCL2 101846Z 26013KT 26/11 A2978 RMK A01 T02550112  RH  041%=      5-min Rain = 0
KCL2 101847Z 26011KT 26/11 A2978 RMK A01 T02560110  RH  040%=      5-min Rain = 0
KCL2 101848Z 26011KT 26/11 A2978 RMK A01 T02580110  RH  039%=      5-min Rain = 0
KCL2 101849Z 26012KT 26/11 A2978 RMK A01 T02580109  RH  039%=      5-min Rain = 0
KCL2 101850Z 24010G15KT 26/11 A2978 RMK A01 T02580110  RH  039%=      5-min Rain = 0
KCL2 101851Z 25012KT 26/11 A2978 RMK A01 T02610110  RH  039%=      5-min Rain = 0
KCL2 101852Z 26013KT 26/11 A2978 RMK A01 T02610110  RH  039%=      5-min Rain = 0
KCL2 101853Z 24010KT 26/11 A2978 RMK A01 T02580106  RH  039%=      5-min Rain = 0
KCL2 101854Z 25009KT 26/11 A2978 RMK A01 T02550107  RH  039%=      5-min Rain = 0
KCL2 101855Z 23007G14KT 25/11 A2977 RMK A01 T02520109  RH  041%=      5-min Rain = 0
KCL2 101856Z 25014KT 25/11 A2977 RMK A01 T02520108  RH  040%=      5-min Rain = 0
KCL2 101857Z 25011KT 25/11 A2977 RMK A01 T02540107  RH  040%=      5-min Rain = 0
KCL2 101858Z 25014KT 25/11 A2977 RMK A01 T02530106  RH  040%=      5-min Rain = 0
KCL2 101859Z 27009KT 25/11 A2977 RMK A01 T02540110  RH  040%=      5-min Rain = 0
KCL2 101900Z 27008KT 26/11 A2977 RMK A01 T02600109  RH  039%=      5-min Rain = 0
KCL2 101901Z 28009KT 26/11 A2977 RMK A01 T02600107  RH  038%=      5-min Rain = 0
KCL2 101902Z 29011KT 26/11 A2977 RMK A01 T02600107  RH  038%=      5-min Rain = 0
KCL2 101903Z 27010KT 26/11 A2977 RMK A01 T02600106  RH  038%=      5-min Rain = 0
KCL2 101904Z 26010KT 26/11 A2977 RMK A01 T02600106  RH  038%=      5-min Rain = 0
KCL2 101905Z 24012KT 26/11 A2977 RMK A01 T02610106  RH  038%=      5-min Rain = 0
KCL2 101906Z 25011KT 26/10 A2977 RMK A01 T02620103  RH  037%=      5-min Rain = 0
KCL2 101907Z 24010G16KT 26/11 A2977 RMK A01 T02600105  RH  038%=      5-min Rain = 0
KCL2 101908Z 24013KT 26/10 A2977 RMK A01 T02630104  RH  037%=      5-min Rain = 0
KCL2 101909Z 26010KT 26/10 A2977 RMK A01 T02610104  RH  037%=      5-min Rain = 0
KCL2 101910Z 25008KT 26/10 A2977 RMK A01 T02610104  RH  037%=      5-min Rain = 0
KCL2 101911Z 25008KT 26/11 A2977 RMK A01 T02620106  RH  038%=      5-min Rain = 0
KCL2 101912Z 23010KT 26/11 A2977 RMK A01 T02640106  RH  037%=      5-min Rain = 0
KCL2 101913Z 23012KT 26/11 A2977 RMK A01 T02620105  RH  037%=      5-min Rain = 0
KCL2 101914Z 26012KT 26/11 A2976 RMK A01 T02610105  RH  038%=      5-min Rain = 0
KCL2 101915Z 26009KT 26/10 A2977 RMK A01 T02590104  RH  038%=      5-min Rain = 0
KCL2 101916Z 25009KT 26/11 A2976 RMK A01 T02630108  RH  038%=      5-min Rain = 0
KCL2 101917Z 25011KT 27/11 A2976 RMK A01 T02660107  RH  037%=      5-min Rain = 0
KCL2 101918Z 25011KT 27/11 A2976 RMK A01 T02650106  RH  037%=      5-min Rain = 0
KCL2 101919Z 22007KT 26/11 A2976 RMK A01 T02640109  RH  038%=      5-min Rain = 0
KCL2 101920Z 24004KT 27/11 A2976 RMK A01 T02670107  RH  037%=      5-min Rain = 0
KCL2 101921Z 26005KT 27/11 A2976 RMK A01 T02660108  RH  037%=      5-min Rain = 0
KCL2 101922Z 27006G11KT 27/11 A2976 RMK A01 T02660108  RH  037%=      5-min Rain = 0
KCL2 101923Z 26007KT 27/11 A2976 RMK A01 T02670106  RH  036%=      5-min Rain = 0
KCL2 101924Z 27007KT 27/11 A2976 RMK A01 T02660105  RH  036%=      5-min Rain = 0
KCL2 101925Z 26009KT 27/10 A2976 RMK A01 T02660104  RH  036%=      5-min Rain = 0
KCL2 101926Z 24011KT 27/10 A2976 RMK A01 T02650103  RH  036%=      5-min Rain = 0
KCL2 101927Z 25009KT 27/10 A2976 RMK A01 T02660100  RH  035%=      5-min Rain = 0
KCL2 101928Z 24007KT 26/10 A2976 RMK A01 T02640102  RH  036%=      5-min Rain = 0
KCL2 101929Z 25010KT 27/10 A2975 RMK A01 T02660102  RH  036%=      5-min Rain = 0
KCL2 101930Z 25010KT 27/10 A2975 RMK A01 T02670103  RH  036%=      5-min Rain = 0
KCL2 101931Z 26010KT 27/10 A2975 RMK A01 T02680103  RH  035%=      5-min Rain = 0
KCL2 101932Z 27010KT 27/11 A2975 RMK A01 T02690105  RH  036%=      5-min Rain = 0
KCL2 101933Z 28008KT 27/11 A2975 RMK A01 T02670105  RH  036%=      5-min Rain = 0
KCL2 101934Z 27008KT 27/10 A2975 RMK A01 T02670104  RH  036%=      5-min Rain = 0
KCL2 101935Z 27009KT 27/10 A2975 RMK A01 T02680102  RH  035%=      5-min Rain = 0
KCL2 101936Z 26009KT 27/10 A2975 RMK A01 T02680100  RH  035%=      5-min Rain = 0
KCL2 101937Z 26008KT 27/10 A2975 RMK A01 T02670103  RH  036%=      5-min Rain = 0
KCL2 101938Z 26009KT 27/10 A2975 RMK A01 T02710098  RH  034%=      5-min Rain = 0
KCL2 101939Z 28009KT 27/09 A2975 RMK A01 T02700092  RH  033%=      5-min Rain = 0
KCL2 101940Z 29009KT 27/09 A2975 RMK A01 T02700093  RH  033%=      5-min Rain = 0
KCL2 101941Z 28008KT 27/10 A2975 RMK A01 T02710096  RH  033%=      5-min Rain = 0
KCL2 101942Z 27008KT 27/10 A2975 RMK A01 T02710101  RH  034%=      5-min Rain = 0
KCL2 101943Z 26012KT 27/10 A2974 RMK A01 T02710099  RH  034%=      5-min Rain = 0
KCL2 101944Z 25013KT 27/10 A2975 RMK A01 T02690099  RH  035%=      5-min Rain = 0
KCL2 101945Z 25010KT 27/10 A2975 RMK A01 T02680097  RH  034%=      5-min Rain = 0
KCL2 101946Z 27009KT 27/10 A2975 RMK A01 T02680096  RH  034%=      5-min Rain = 0
KCL2 101947Z 25008KT 27/10 A2974 RMK A01 T02670096  RH  034%=      5-min Rain = 0
KCL2 101948Z 24009KT 27/09 A2974 RMK A01 T02680094  RH  033%=      5-min Rain = 0
KCL2 101949Z 24006KT 27/10 A2974 RMK A01 T02670095  RH  034%=      5-min Rain = 0
KCL2 101950Z 26008KT 27/10 A2974 RMK A01 T02660096  RH  034%=      5-min Rain = 0
KCL2 101951Z 27010KT 27/10 A2974 RMK A01 T02660098  RH  035%=      5-min Rain = 0
KCL2 101952Z 27008KT 27/10 A2974 RMK A01 T02660099  RH  035%=      5-min Rain = 0
KCL2 101953Z 27008KT 27/09 A2974 RMK A01 T02660094  RH  034%=      5-min Rain = 0
KCL2 101954Z 24005KT 27/09 A2974 RMK A01 T02680085  RH  032%=      5-min Rain = 0
KCL2 101955Z 21007KT 27/10 A2974 RMK A01 T02710100  RH  034%=      5-min Rain = 0
KCL2 101956Z 23009KT 27/10 A2974 RMK A01 T02720099  RH  034%=      5-min Rain = 0
KCL2 101957Z 25006G12KT 27/09 A2974 RMK A01 T02730094  RH  032%=      5-min Rain = 0
KCL2 101958Z 24012KT 28/09 A2974 RMK A01 T02760094  RH  032%=      5-min Rain = 0
KCL2 101959Z 24010KT 28/10 A2974 RMK A01 T02750095  RH  032%=      5-min Rain = 0
KCL2 102000Z 24009KT 27/09 A2974 RMK A01 T02740093  RH  032%=      5-min Rain = 0
KCL2 102001Z 23006KT 27/09 A2974 RMK A01 T02740092  RH  032%=      5-min Rain = 0
KCL2 102002Z 22007KT 27/09 A2974 RMK A01 T02740091  RH  032%=      5-min Rain = 0
KCL2 102003Z 25004KT 27/09 A2974 RMK A01 T02730093  RH  032%=      5-min Rain = 0
KCL2 102004Z 25005KT 27/09 A2974 RMK A01 T02720091  RH  032%=      5-min Rain = 0
KCL2 102005Z 24004KT 27/09 A2974 RMK A01 T02710092  RH  032%=      5-min Rain = 0
KCL2 102006Z 23008KT 27/09 A2974 RMK A01 T02720092  RH  032%=      5-min Rain = 0
KCL2 102007Z 23005KT 27/09 A2974 RMK A01 T02730090  RH  032%=      5-min Rain = 0
KCL2 102008Z 24007KT 27/09 A2974 RMK A01 T02730089  RH  032%=      5-min Rain = 0
KCL2 102009Z 26010KT 27/08 A2973 RMK A01 T02730081  RH  030%=      5-min Rain = 0
KCL2 102010Z 27009KT 27/07 A2973 RMK A01 T02730070  RH  028%=      5-min Rain = 0
KCL2 102011Z 25010KT 28/06 A2973 RMK A01 T02770062  RH  026%=      5-min Rain = 0
KCL2 102012Z 26012KT 28/06 A2973 RMK A01 T02810062  RH  025%=      5-min Rain = 0
KCL2 102013Z 28011KT 28/06 A2973 RMK A01 T02840063  RH  025%=      5-min Rain = 0
KCL2 102014Z 28010KT 28/06 A2973 RMK A01 T02840062  RH  025%=      5-min Rain = 0
KCL2 102015Z 26007KT 28/06 A2973 RMK A01 T02820059  RH  024%=      5-min Rain = 0
KCL2 102016Z 25007KT 28/06 A2973 RMK A01 T02800058  RH  024%=      5-min Rain = 0
KCL2 102017Z 25006KT 28/06 A2973 RMK A01 T02800056  RH  024%=      5-min Rain = 0
KCL2 102018Z 26008KT 28/06 A2973 RMK A01 T02790057  RH  024%=      5-min Rain = 0
KCL2 102019Z 28009KT 28/06 A2973 RMK A01 T02810056  RH  024%=      5-min Rain = 0
KCL2 102020Z 26013KT 28/06 A2973 RMK A01 T02830056  RH  024%=      5-min Rain = 0
KCL2 102021Z 28011KT 28/06 A2973 RMK A01 T02820057  RH  024%=      5-min Rain = 0
KCL2 102022Z 26009KT 28/06 A2973 RMK A01 T02800057  RH  024%=      5-min Rain = 0
KCL2 102023Z 26009KT 28/06 A2973 RMK A01 T02780056  RH  024%=      5-min Rain = 0
KCL2 102024Z 26010KT 28/06 A2973 RMK A01 T02780059  RH  025%=      5-min Rain = 0
KCL2 102025Z 26010KT 28/06 A2973 RMK A01 T02790059  RH  025%=      5-min Rain = 0
KCL2 102026Z 27009KT 28/06 A2973 RMK A01 T02790056  RH  024%=      5-min Rain = 0
KCL2 102027Z 26008KT 28/06 A2973 RMK A01 T02780057  RH  024%=      5-min Rain = 0
KCL2 102028Z 26009KT 28/06 A2973 RMK A01 T02780058  RH  025%=      5-min Rain = 0
KCL2 102029Z 26008KT 28/06 A2973 RMK A01 T02790060  RH  025%=      5-min Rain = 0
KCL2 102030Z 26008KT 28/06 A2973 RMK A01 T02800057  RH  024%=      5-min Rain = 0
KCL2 102031Z 27010KT 28/06 A2973 RMK A01 T02810060  RH  025%=      5-min Rain = 0
KCL2 102032Z 27011KT 28/06 A2973 RMK A01 T02830057  RH  024%=      5-min Rain = 0
KCL2 102033Z 25010KT 28/06 A2973 RMK A01 T02830058  RH  024%=      5-min Rain = 0
KCL2 102034Z 25008KT 28/05 A2973 RMK A01 T02810054  RH  024%=      5-min Rain = 0
KCL2 102035Z 26007KT 28/05 A2972 RMK A01 T02780053  RH  024%=      5-min Rain = 0
KCL2 102036Z 27008KT 28/05 A2972 RMK A01 T02770050  RH  023%=      5-min Rain = 0
KCL2 102037Z 28005KT 28/04 A2972 RMK A01 T02770044  RH  023%=      5-min Rain = 0
KCL2 102038Z 27008KT 28/05 A2972 RMK A01 T02790046  RH  023%=      5-min Rain = 0
KCL2 102039Z 27007KT 28/04 A2972 RMK A01 T02810040  RH  021%=      5-min Rain = 0
KCL2 102040Z 27006KT 28/04 A2972 RMK A01 T02800041  RH  022%=      5-min Rain = 0
KCL2 102041Z 27006KT 28/04 A2972 RMK A01 T02810042  RH  022%=      5-min Rain = 0
KCL2 102042Z 28008KT 28/04 A2972 RMK A01 T02810039  RH  021%=      5-min Rain = 0
KCL2 102043Z 28008KT 28/04 A2972 RMK A01 T02810037  RH  021%=      5-min Rain = 0
KCL2 102044Z 29009KT 28/04 A2972 RMK A01 T02800043  RH  022%=      5-min Rain = 0
KCL2 102045Z 27009KT 28/05 A2972 RMK A01 T02810046  RH  022%=      5-min Rain = 0
KCL2 102046Z 26007KT 28/05 A2972 RMK A01 T02840045  RH  022%=      5-min Rain = 0
KCL2 102047Z 26007KT 29/04 A2972 RMK A01 T02850043  RH  021%=      5-min Rain = 0
KCL2 102048Z 25010KT 29/04 A2972 RMK A01 T02850044  RH  021%=      5-min Rain = 0
KCL2 102049Z 24008KT 29/04 A2972 RMK A01 T02860040  RH  021%=      5-min Rain = 0
KCL2 102050Z 24008KT 29/04 A2972 RMK A01 T02860041  RH  021%=      5-min Rain = 0
KCL2 102051Z 26010KT 29/05 A2972 RMK A01 T02870048  RH  022%=      5-min Rain = 0
KCL2 102052Z 25008KT 29/04 A2972 RMK A01 T02900041  RH  020%=      5-min Rain = 0
KCL2 102053Z 25008KT 29/04 A2972 RMK A01 T02860037  RH  020%=      5-min Rain = 0
KCL2 102054Z 25010KT 28/04 A2972 RMK A01 T02840039  RH  021%=      5-min Rain = 0
KCL2 102055Z 26008KT 28/04 A2971 RMK A01 T02840037  RH  021%=      5-min Rain = 0
KCL2 102056Z 27006KT 28/04 A2971 RMK A01 T02830038  RH  021%=      5-min Rain = 0
KCL2 102057Z 25005KT 28/04 A2971 RMK A01 T02840041  RH  021%=      5-min Rain = 0
KCL2 102058Z 23005KT 29/04 A2971 RMK A01 T02880042  RH  021%=      5-min Rain = 0
KCL2 102059Z 23008KT 29/04 A2971 RMK A01 T02900038  RH  020%=      5-min Rain = 0
KCL2 102100Z 24009KT 29/04 A2971 RMK A01 T02890039  RH  020%=      5-min Rain = 0
KCL2 102101Z 25010KT 29/04 A2971 RMK A01 T02890040  RH  020%=      5-min Rain = 0
KCL2 102102Z 25008KT 29/04 A2971 RMK A01 T02910035  RH  020%=      5-min Rain = 0
KCL2 102103Z 25008KT 29/04 A2971 RMK A01 T02900036  RH  020%=      5-min Rain = 0
KCL2 102104Z 24006KT 29/03 A2971 RMK A01 T02880031  RH  019%=      5-min Rain = 0
KCL2 102105Z 25007KT 29/03 A2971 RMK A01 T02870034  RH  020%=      5-min Rain = 0
KCL2 102106Z 25010KT 29/04 A2971 RMK A01 T02880036  RH  020%=      5-min Rain = 0
KCL2 102107Z 26009KT 29/04 A2971 RMK A01 T02890035  RH  020%=      5-min Rain = 0
KCL2 102108Z 27009KT 29/03 A2971 RMK A01 T02880031  RH  019%=      5-min Rain = 0
KCL2 102109Z 26009KT 29/03 A2971 RMK A01 T02890028  RH  019%=      5-min Rain = 0
KCL2 102110Z 29007KT 29/03 A2971 RMK A01 T02910028  RH  018%=      5-min Rain = 0
KCL2 102111Z 30008KT 29/02 A2971 RMK A01 T02920023  RH  018%=      5-min Rain = 0
KCL2 102112Z 32007KT 29/02 A2971 RMK A01 T02910020  RH  018%=      5-min Rain = 0
KCL2 102113Z 33007KT 29/02 A2971 RMK A01 T02910021  RH  018%=      5-min Rain = 0
KCL2 102114Z 32004KT 29/03 A2971 RMK A01 T02910025  RH  018%=      5-min Rain = 0
KCL2 102115Z 27004KT 29/03 A2971 RMK A01 T02930030  RH  019%=      5-min Rain = 0
KCL2 102116Z 26006KT 30/02 A2971 RMK A01 T02960022  RH  017%=      5-min Rain = 0
KCL2 102117Z 28006G14KT 30/02 A2971 RMK A01 T02950020  RH  017%=      5-min Rain = 0
KCL2 102118Z 27011KT 30/01 A2971 RMK A01 T02950011  RH  016%=      5-min Rain = 0
KCL2 102119Z 27011KT 29/01 A2971 RMK A01 T02930011  RH  016%=      5-min Rain = 0
KCL2 102120Z 28010KT 29/01 A2971 RMK A01 T02940010  RH  016%=      5-min Rain = 0
KCL2 102121Z 27008KT 29/00 A2971 RMK A01 T02940003  RH  015%=      5-min Rain = 0
KCL2 102122Z 27006KT 29/01 A2971 RMK A01 T02920005  RH  016%=      5-min Rain = 0
KCL2 102123Z 28006KT 29/00 A2971 RMK A01 T02910004  RH  016%=      5-min Rain = 0
KCL2 102124Z 29005KT 29/00 A2971 RMK A01 T02890000  RH  015%=      5-min Rain = 0
KCL2 102125Z 29004KT 29/01 A2971 RMK A01 T02880005  RH  016%=      5-min Rain = 0
KCL2 102126Z 26008KT 29/01 A2971 RMK A01 T02900011  RH  017%=      5-min Rain = 0
KCL2 102127Z 25006KT 29/02 A2971 RMK A01 T02920018  RH  017%=      5-min Rain = 0
KCL2 102128Z 25005KT 29/02 A2971 RMK A01 T02920017  RH  017%=      5-min Rain = 0
KCL2 102129Z 26006KT 29/02 A2971 RMK A01 T02930019  RH  017%=      5-min Rain = 0
KCL2 102130Z 28006KT 30/02 A2971 RMK A01 T02960016  RH  017%=      5-min Rain = 0
KCL2 102131Z 29009KT 30/01 A2971 RMK A01 T02970005  RH  015%=      5-min Rain = 0
KCL2 102132Z 29006KT 29/00 A2971 RMK A01 T02940004  RH  015%=      5-min Rain = 0
KCL2 102133Z 28006KT 29/00 A2971 RMK A01 T02920003  RH  015%=      5-min Rain = 0
KCL2 102134Z 27006KT 29/00 A2971 RMK A01 T02920002  RH  015%=      5-min Rain = 0
KCL2 102135Z 26007KT 29/01 A2971 RMK A01 T02930005  RH  016%=      5-min Rain = 0
KCL2 102136Z 25006KT 29/01 A2971 RMK A01 T02940008  RH  016%=      5-min Rain = 0
KCL2 102137Z 27005KT 30/01 A2971 RMK A01 T02950012  RH  016%=      5-min Rain = 0
KCL2 102138Z 27009KT 30/01 A2971 RMK A01 T02960012  RH  016%=      5-min Rain = 0
KCL2 102139Z 26010KT 30/M01 A2971 RMK A01 T02971007  RH  014%=      5-min Rain = 0
KCL2 102140Z 26006KT 30/M02 A2971 RMK A01 T02961015  RH  013%=      5-min Rain = 0
KCL2 102141Z 29005KT 29/M02 A2971 RMK A01 T02931016  RH  013%=      5-min Rain = 0
KCL2 102142Z 29005G11KT 29/M01 A2971 RMK A01 T02921008  RH  014%=      5-min Rain = 0
KCL2 102143Z 27010KT 29/M00 A297 RMK A01 T02941001  RH  015%=      5-min Rain = 0
KCL2 102144Z 27009KT 30/M01 A2971 RMK A01 T02971005  RH  014%=      5-min Rain = 0
KCL2 102145Z 27010KT 30/M01 A2971 RMK A01 T02981010  RH  014%=      5-min Rain = 0
KCL2 102146Z 26008KT 30/00 A2971 RMK A01 T02990003  RH  015%=      5-min Rain = 0
KCL2 102147Z 26008KT 30/M00 A297 RMK A01 T02991004  RH  014%=      5-min Rain = 0
KCL2 102148Z 26009KT 30/M01 A2971 RMK A01 T02991007  RH  014%=      5-min Rain = 0
KCL2 102149Z 26008KT 30/M01 A2971 RMK A01 T02991013  RH  013%=      5-min Rain = 0
KCL2 102150Z 27008KT 30/M01 A2971 RMK A01 T02981007  RH  014%=      5-min Rain = 0
KCL2 102151Z 27007KT 30/M01 A297 RMK A01 T02981009  RH  014%=      5-min Rain = 0
KCL2 102152Z 25008KT 30/M01 A297 RMK A01 T02961009  RH  014%=      5-min Rain = 0
KCL2 102153Z 24007KT 29/M02 A297 RMK A01 T02941019  RH  013%=      5-min Rain = 0
KCL2 102154Z 26009KT 29/M02 A297 RMK A01 T02931015  RH  013%=      5-min Rain = 0
KCL2 102155Z 26008KT 30/M02 A297 RMK A01 T02951017  RH  013%=      5-min Rain = 0
KCL2 102156Z 25009KT 30/M01 A297 RMK A01 T02971014  RH  013%=      5-min Rain = 0
KCL2 102157Z 25007KT 30/M01 A297 RMK A01 T02991014  RH  013%=      5-min Rain = 0
KCL2 102158Z 29010KT 30/M01 A297 RMK A01 T02991010  RH  014%=      5-min Rain = 0
KCL2 102159Z 30010KT 30/M00 A297 RMK A01 T02991003  RH  014%=      5-min Rain = 0
KCL2 102200Z 30007KT 30/M01 A297 RMK A01 T02991006  RH  014%=      5-min Rain = 0
KCL2 102201Z 29007KT 30/M00 A297 RMK A01 T02981004  RH  014%=      5-min Rain = 0
KCL2 102202Z 30006KT 30/00 A297 RMK A01 T02950000  RH  015%=      5-min Rain = 0
KCL2 102203Z 33006KT 29/01 A297 RMK A01 T02940008  RH  016%=      5-min Rain = 0
KCL2 102204Z 31007KT 30/01 A297 RMK A01 T02960013  RH  016%=      5-min Rain = 0
KCL2 102205Z 29006KT 30/01 A297 RMK A01 T02960010  RH  016%=      5-min Rain = 0
KCL2 102206Z 30007KT 30/01 A297 RMK A01 T02960011  RH  016%=      5-min Rain = 0
KCL2 102207Z 31009KT 30/01 A297 RMK A01 T02960008  RH  016%=      5-min Rain = 0
KCL2 102208Z 28010KT 30/M01 A297 RMK A01 T02981007  RH  014%=      5-min Rain = 0
KCL2 102209Z 30009KT 30/M02 A297 RMK A01 T02991015  RH  013%=      5-min Rain = 0
KCL2 102210Z 30009KT 30/M02 A297 RMK A01 T02991020  RH  012%=      5-min Rain = 0
KCL2 102211Z 30009KT 30/M02 A297 RMK A01 T02991017  RH  013%=      5-min Rain = 0
KCL2 102212Z 31008KT 30/M01 A297 RMK A01 T02981014  RH  013%=      5-min Rain = 0
KCL2 102213Z 31008KT 30/M02 A297 RMK A01 T02981015  RH  013%=      5-min Rain = 0
KCL2 102214Z 30007KT 30/M01 A297 RMK A01 T02991014  RH  013%=      5-min Rain = 0
KCL2 102215Z 29007KT 30/M00 A297 RMK A01 T02991002  RH  014%=      5-min Rain = 0
KCL2 102216Z 32008KT 30/M00 A297 RMK A01 T02991001  RH  014%=      5-min Rain = 0
KCL2 102217Z 32007KT 30/M00 A297 RMK A01 T03001004  RH  014%=      5-min Rain = 0
KCL2 102218Z 33004KT 30/M01 A297 RMK A01 T03001010  RH  013%=      5-min Rain = 0
KCL2 102219Z 32005KT 30/M01 A297 RMK A01 T02981007  RH  014%=      5-min Rain = 0
KCL2 102220Z 28004KT 30/00 A297 RMK A01 T029700-0  RH  015%=      5-min Rain = 0
KCL2 102221Z 30006KT 30/00 A297 RMK A01 T02990002  RH  015%=      5-min Rain = 0
KCL2 102222Z 29008KT 30/M01 A297 RMK A01 T03001011  RH  013%=      5-min Rain = 0
KCL2 102223Z 30009KT 30/M02 A297 RMK A01 T03001020  RH  012%=      5-min Rain = 0
KCL2 102224Z 30009KT 30/M02 A297 RMK A01 T03001020  RH  012%=      5-min Rain = 0
KCL2 102225Z 30009KT 30/M02 A297 RMK A01 T03001020  RH  012%=      5-min Rain = 0
KCL2 102226Z 30007KT 30/M01 A297 RMK A01 T02991014  RH  013%=      5-min Rain = 0
KCL2 102227Z 29006KT 30/M01 A297 RMK A01 T03001014  RH  013%=      5-min Rain = 0
KCL2 102228Z 28007KT 30/M01 A297 RMK A01 T02981011  RH  013%=      5-min Rain = 0
KCL2 102229Z 30010KT 30/M01 A297 RMK A01 T02981008  RH  014%=      5-min Rain = 0
KCL2 102230Z 31009KT 30/M01 A297 RMK A01 T02981007  RH  014%=      5-min Rain = 0
KCL2 102231Z 31007KT 30/M01 A297 RMK A01 T02981009  RH  014%=      5-min Rain = 0
KCL2 102232Z 30007KT 30/M01 A297 RMK A01 T02981005  RH  014%=      5-min Rain = 0
KCL2 102233Z 30007KT 30/M02 A297 RMK A01 T02991015  RH  013%=      5-min Rain = 0
KCL2 102234Z 29006KT 30/M02 A297 RMK A01 T02981018  RH  013%=      5-min Rain = 0
KCL2 102235Z 28006KT 30/M02 A297 RMK A01 T02981015  RH  013%=      5-min Rain = 0
KCL2 102236Z 27009KT 30/M01 A297 RMK A01 T03001007  RH  014%=      5-min Rain = 0
KCL2 102237Z 27006KT 30/M01 A297 RMK A01 T03011014  RH  013%=      5-min Rain = 0
KCL2 102238Z 27007KT 30/M02 A297 RMK A01 T02991017  RH  013%=      5-min Rain = 0
KCL2 102239Z 29010KT 30/M01 A297 RMK A01 T02981012  RH  013%=      5-min Rain = 0
KCL2 102240Z 28009KT 30/M01 A297 RMK A01 T02961010  RH  014%=      5-min Rain = 0
KCL2 102241Z 28009KT 30/M01 A297 RMK A01 T02961013  RH  013%=      5-min Rain = 0
KCL2 102242Z 26006KT 30/M02 A297 RMK A01 T02951017  RH  013%=      5-min Rain = 0
KCL2 102243Z 26006KT 30/M01 A297 RMK A01 T02951014  RH  013%=      5-min Rain = 0
KCL2 102244Z 24005KT 30/M02 A297 RMK A01 T02951015  RH  013%=      5-min Rain = 0
KCL2 102245Z 24006KT 30/M01 A297 RMK A01 T02951014  RH  013%=      5-min Rain = 0
KCL2 102246Z 24006KT 30/M01 A297 RMK A01 T02961013  RH  013%=      5-min Rain = 0
KCL2 102247Z 23008KT 30/M01 A297 RMK A01 T02961013  RH  013%=      5-min Rain = 0
KCL2 102248Z 29009KT 30/M01 A297 RMK A01 T02971009  RH  014%=      5-min Rain = 0
KCL2 102249Z 31007KT 30/M01 A297 RMK A01 T02971007  RH  014%=      5-min Rain = 0
KCL2 102250Z 29009KT 30/M01 A297 RMK A01 T02971007  RH  014%=      5-min Rain = 0
KCL2 102251Z 29006KT 30/M01 A297 RMK A01 T02961009  RH  014%=      5-min Rain = 0
KCL2 102252Z 30006KT 29/M01 A297 RMK A01 T02941011  RH  014%=      5-min Rain = 0
KCL2 102253Z 30005KT 29/M01 A297 RMK A01 T02931011  RH  014%=      5-min Rain = 0
KCL2 102254Z 32003KT 29/M01 A297 RMK A01 T02911012  RH  014%=      5-min Rain = 0
KCL2 102255Z 32001KT 29/M01 A297 RMK A01 T02911014  RH  014%=      5-min Rain = 0
KCL2 102256Z 31005KT 29/M01 A297 RMK A01 T02901014  RH  014%=      5-min Rain = 0
KCL2 102257Z 30005KT 29/M01 A297 RMK A01 T02901010  RH  014%=      5-min Rain = 0
KCL2 102258Z 26003KT 29/M01 A297 RMK A01 T02891010  RH  014%=      5-min Rain = 0
KCL2 102259Z 27004KT 29/M01 A297 RMK A01 T02881014  RH  014%=      5-min Rain = 0
KCL2 102300Z 25004KT 29/M01 A297 RMK A01 T02871012  RH  014%=      5-min Rain = 0
KCL2 102301Z 27003KT 29/M01 A297 RMK A01 T02861010  RH  015%=      5-min Rain = 0
KCL2 102302Z 28003KT 29/M01 A297 RMK A01 T02861009  RH  015%=      5-min Rain = 0
KCL2 102303Z 29004KT 29/M01 A297 RMK A01 T02861008  RH  015%=      5-min Rain = 0
KCL2 102304Z 29005KT 29/M01 A297 RMK A01 T02861005  RH  015%=      5-min Rain = 0
KCL2 102305Z 30006KT 29/M00 A297 RMK A01 T02871004  RH  015%=      5-min Rain = 0
KCL2 102306Z 31004KT 29/M00 A297 RMK A01 T02881002  RH  015%=      5-min Rain = 0
KCL2 102307Z 31006KT 29/M00 A297 RMK A01 T02891001  RH  015%=      5-min Rain = 0
KCL2 102308Z 31007KT 29/M00 A297 RMK A01 T02901004  RH  015%=      5-min Rain = 0
KCL2 102309Z 30005KT 29/M01 A297 RMK A01 T02901010  RH  014%=      5-min Rain = 0
KCL2 102310Z 29006KT 29/M01 A297 RMK A01 T02891013  RH  014%=      5-min Rain = 0
KCL2 102311Z 28004KT 29/M02 A297 RMK A01 T02891015  RH  014%=      5-min Rain = 0
KCL2 102312Z 24003KT 29/M02 A297 RMK A01 T02881017  RH  014%=      5-min Rain = 0
KCL2 102313Z 26003KT 29/M02 A297 RMK A01 T02881016  RH  014%=      5-min Rain = 0
KCL2 102314Z 28003KT 29/M02 A297 RMK A01 T02881015  RH  014%=      5-min Rain = 0
KCL2 102315Z 27004KT 29/M01 A297 RMK A01 T02891014  RH  014%=      5-min Rain = 0
KCL2 102316Z 28004KT 29/M01 A297 RMK A01 T02891012  RH  014%=      5-min Rain = 0
KCL2 102317Z 28005KT 29/M01 A2971 RMK A01 T02891013  RH  014%=      5-min Rain = 0
KCL2 102318Z 29005KT 29/M01 A297 RMK A01 T02881012  RH  014%=      5-min Rain = 0
KCL2 102319Z 27005KT 29/M01 A2971 RMK A01 T02871005  RH  015%=      5-min Rain = 0
KCL2 102320Z 27005KT 29/M01 A2971 RMK A01 T02871005  RH  015%=      5-min Rain = 0
KCL2 102321Z 27005KT 29/M01 A2971 RMK A01 T02861008  RH  015%=      5-min Rain = 0
KCL2 102322Z 27004KT 29/M01 A2971 RMK A01 T02851006  RH  015%=      5-min Rain = 0
KCL2 102323Z 28003KT 28/M01 A2971 RMK A01 T02841013  RH  014%=      5-min Rain = 0
KCL2 102324Z 28002KT 28/M02 A2971 RMK A01 T02841017  RH  014%=      5-min Rain = 0
KCL2 102325Z 28003KT 28/M02 A2971 RMK A01 T02841016  RH  014%=      5-min Rain = 0
KCL2 102326Z 25002KT 28/M02 A2971 RMK A01 T02841019  RH  014%=      5-min Rain = 0
KCL2 102327Z 25001KT 28/M02 A297 RMK A01 T02841020  RH  014%=      5-min Rain = 0
KCL2 102328Z 26002KT 28/M02 A297 RMK A01 T02841019  RH  014%=      5-min Rain = 0
KCL2 102329Z 26003KT 28/M02 A297 RMK A01 T02841017  RH  014%=      5-min Rain = 0
KCL2 102330Z 25003KT 28/M01 A297 RMK A01 T02841013  RH  014%=      5-min Rain = 0
KCL2 102331Z 27002KT 28/M01 A297 RMK A01 T02841009  RH  015%=      5-min Rain = 0
KCL2 102332Z 27002KT 28/M01 A297 RMK A01 T02831006  RH  015%=      5-min Rain = 0
KCL2 102333Z 27002KT 28/M00 A2971 RMK A01 T02821003  RH  016%=      5-min Rain = 0
KCL2 102334Z 28002KT 28/M00 A2971 RMK A01 T02801003  RH  016%=      5-min Rain = 0
KCL2 102335Z 28002KT 28/M00 A2971 RMK A01 T02791001  RH  016%=      5-min Rain = 0
KCL2 102336Z 28001KT 28/M00 A2971 RMK A01 T02781001  RH  016%=      5-min Rain = 0
KCL2 102337Z 29001KT 28/M00 A2971 RMK A01 T02781002  RH  016%=      5-min Rain = 0
KCL2 102338Z 31001KT 28/00 A2971 RMK A01 T02770000  RH  016%=      5-min Rain = 0
KCL2 102339Z 35001KT 28/M00 A2971 RMK A01 T02771002  RH  016%=      5-min Rain = 0
KCL2 102340Z 02001KT 28/M00 A2971 RMK A01 T02761004  RH  016%=      5-min Rain = 0
KCL2 102341Z 02001KT 28/M01 A2971 RMK A01 T02761005  RH  016%=      5-min Rain = 0
KCL2 102342Z 03001KT 28/M01 A2971 RMK A01 T02761006  RH  016%=      5-min Rain = 0
KCL2 102343Z 03001KT 28/M01 A2971 RMK A01 T02751009  RH  016%=      5-min Rain = 0
KCL2 102344Z 03002KT 28/M01 A2971 RMK A01 T02751011  RH  015%=      5-min Rain = 0
KCL2 102345Z 02002KT 28/M01 A2971 RMK A01 T02751010  RH  015%=      5-min Rain = 0
KCL2 102346Z 01002KT 28/M01 A2971 RMK A01 T02751007  RH  016%=      5-min Rain = 0
KCL2 102347Z 01002KT 27/M01 A2971 RMK A01 T02741008  RH  016%=      5-min Rain = 0
KCL2 102348Z 01002KT 27/M01 A2971 RMK A01 T02741008  RH  016%=      5-min Rain = 0
KCL2 102349Z 01002KT 27/M01 A2971 RMK A01 T02731007  RH  016%=      5-min Rain = 0
KCL2 102350Z 02002KT 27/M01 A2971 RMK A01 T02731007  RH  016%=      5-min Rain = 0
KCL2 102351Z 03003KT 27/M01 A2971 RMK A01 T02721008  RH  016%=      5-min Rain = 0
KCL2 102352Z 03003KT 27/M01 A2971 RMK A01 T02711007  RH  016%=      5-min Rain = 0
KCL2 102353Z 03002KT 27/M01 A2972 RMK A01 T02701005  RH  016%=      5-min Rain = 0
KCL2 102354Z 03003KT 27/M00 A2972 RMK A01 T02691004  RH  017%=      5-min Rain = 0
KCL2 102355Z 03003KT 27/M00 A2972 RMK A01 T02681003  RH  017%=      5-min Rain = 0
KCL2 102356Z 03003KT 27/M00 A2972 RMK A01 T02671001  RH  017%=      5-min Rain = 0
KCL2 102357Z 03003KT 27/M00 A2972 RMK A01 T02651002  RH  017%=      5-min Rain = 0
KCL2 102358Z 03003KT 26/M00 A2972 RMK A01 T02641002  RH  017%=      5-min Rain = 0
KCL2 102359Z 04003KT 26/00 A2972 RMK A01 T026200-0  RH  018%=      5-min Rain = 0
KCL2 110000Z 05003KT 26/00 A2972 RMK A01 T02610003  RH  018%=      5-min Rain = 0
KCL2 110001Z 04003KT 26/00 A2972 RMK A01 T02590000  RH  018%=      5-min Rain = 0
KCL2 110002Z 04003KT 26/M00 A2972 RMK A01 T02591003  RH  018%=      5-min Rain = 0
KCL2 110003Z 04004KT 26/M00 A2972 RMK A01 T02591004  RH  018%=      5-min Rain = 0
KCL2 110004Z 04004KT 26/M00 A2972 RMK A01 T02591001  RH  018%=      5-min Rain = 0
KCL2 110005Z 04004KT 26/M00 A2972 RMK A01 T02581001  RH  018%=      5-min Rain = 0
KCL2 110006Z 04004KT 26/00 A2972 RMK A01 T02570001  RH  019%=      5-min Rain = 0
KCL2 110007Z 03004KT 26/00 A2972 RMK A01 T02560003  RH  019%=      5-min Rain = 0
KCL2 110008Z 03004KT 26/01 A2972 RMK A01 T02560006  RH  019%=      5-min Rain = 0
KCL2 110009Z 03004KT 26/01 A2972 RMK A01 T02550007  RH  020%=      5-min Rain = 0
KCL2 110010Z 03004KT 25/01 A2972 RMK A01 T02540010  RH  020%=      5-min Rain = 0
KCL2 110011Z 03004KT 25/01 A2972 RMK A01 T02540008  RH  020%=      5-min Rain = 0
KCL2 110012Z 03004KT 25/01 A2972 RMK A01 T02540007  RH  020%=      5-min Rain = 0
KCL2 110013Z 03004KT 26/01 A2972 RMK A01 T02550005  RH  019%=      5-min Rain = 0
KCL2 110014Z 03004KT 26/01 A2972 RMK A01 T02550005  RH  019%=      5-min Rain = 0
KCL2 110015Z 03004KT 26/01 A2972 RMK A01 T02560005  RH  019%=      5-min Rain = 0
KCL2 110016Z 03004KT 26/01 A2972 RMK A01 T02560005  RH  019%=      5-min Rain = 0
KCL2 110017Z 03004KT 26/01 A2972 RMK A01 T02560005  RH  019%=      5-min Rain = 0
KCL2 110018Z 03004KT 26/01 A2972 RMK A01 T02560005  RH  019%=      5-min Rain = 0
KCL2 110019Z 03003KT 26/01 A2972 RMK A01 T02570006  RH  019%=      5-min Rain = 0
KCL2 110020Z 03003KT 26/01 A2972 RMK A01 T02570005  RH  019%=      5-min Rain = 0
KCL2 110021Z 03003KT 26/01 A2972 RMK A01 T02570005  RH  019%=      5-min Rain = 0
KCL2 110022Z 04003KT 26/00 A2972 RMK A01 T02570004  RH  019%=      5-min Rain = 0
KCL2 110023Z 04003KT 26/00 A2972 RMK A01 T02570004  RH  019%=      5-min Rain = 0
KCL2 110024Z 04003KT 26/01 A2972 RMK A01 T02570005  RH  019%=      5-min Rain = 0
KCL2 110025Z 04003KT 26/01 A2972 RMK A01 T02560006  RH  019%=      5-min Rain = 0
KCL2 110026Z 04003KT 26/01 A2972 RMK A01 T02560006  RH  020%=      5-min Rain = 0
KCL2 110027Z 04002KT 26/01 A2972 RMK A01 T02550006  RH  020%=      5-min Rain = 0
KCL2 110028Z 05003KT 25/01 A2972 RMK A01 T02540008  RH  020%=      5-min Rain = 0
KCL2 110029Z 05002KT 25/01 A2972 RMK A01 T02530012  RH  021%=      5-min Rain = 0
KCL2 110030Z 05002KT 25/02 A2972 RMK A01 T02500018  RH  022%=      5-min Rain = 0
KCL2 110031Z 06002KT 25/02 A2972 RMK A01 T02480021  RH  023%=      5-min Rain = 0
KCL2 110032Z 06002KT 25/02 A2972 RMK A01 T02460019  RH  023%=      5-min Rain = 0
KCL2 110033Z 07002KT 25/02 A2972 RMK A01 T02450017  RH  022%=      5-min Rain = 0
KCL2 110034Z 07002KT 24/01 A2972 RMK A01 T02440014  RH  022%=      5-min Rain = 0
KCL2 110035Z 08002KT 24/01 A2972 RMK A01 T02440013  RH  022%=      5-min Rain = 0
KCL2 110036Z 08002KT 24/01 A2972 RMK A01 T02440011  RH  022%=      5-min Rain = 0
KCL2 110037Z 08002KT 24/01 A2972 RMK A01 T02440008  RH  021%=      5-min Rain = 0
KCL2 110038Z 08002KT 24/01 A2972 RMK A01 T02440007  RH  021%=      5-min Rain = 0
KCL2 110039Z 07002KT 24/01 A2972 RMK A01 T02440005  RH  021%=      5-min Rain = 0
KCL2 110040Z 07002KT 25/00 A2972 RMK A01 T02450004  RH  020%=      5-min Rain = 0
KCL2 110041Z 07002KT 25/00 A2972 RMK A01 T02450002  RH  020%=      5-min Rain = 0
KCL2 110042Z 08002KT 25/00 A2972 RMK A01 T02450002  RH  020%=      5-min Rain = 0
KCL2 110043Z 08002KT 25/00 A2972 RMK A01 T02450002  RH  020%=      5-min Rain = 0
KCL2 110044Z 09002KT 25/00 A2972 RMK A01 T02450002  RH  020%=      5-min Rain = 0
KCL2 110045Z 08002KT 25/00 A2972 RMK A01 T02450001  RH  020%=      5-min Rain = 0
KCL2 110046Z 08003KT 25/00 A2972 RMK A01 T02450003  RH  020%=      5-min Rain = 0
KCL2 110047Z 08003KT 24/01 A2972 RMK A01 T02440006  RH  021%=      5-min Rain = 0
KCL2 110048Z 08003KT 24/01 A2972 RMK A01 T02420007  RH  021%=      5-min Rain = 0
KCL2 110049Z 08003KT 24/01 A2972 RMK A01 T02410007  RH  022%=      5-min Rain = 0
KCL2 110050Z 08003KT 24/01 A2972 RMK A01 T02390009  RH  022%=      5-min Rain = 0
KCL2 110051Z 08003KT 24/01 A2972 RMK A01 T02370006  RH  022%=      5-min Rain = 0
KCL2 110052Z 08003KT 24/00 A2972 RMK A01 T02360004  RH  021%=      5-min Rain = 0
KCL2 110053Z 09003KT 24/00 A2972 RMK A01 T02370004  RH  021%=      5-min Rain = 0
KCL2 110054Z 08003KT 24/01 A2972 RMK A01 T02360007  RH  022%=      5-min Rain = 0
KCL2 110055Z 08003KT 24/01 A2972 RMK A01 T02360012  RH  023%=      5-min Rain = 0
KCL2 110056Z 08003KT 23/01 A2972 RMK A01 T02340013  RH  023%=      5-min Rain = 0
KCL2 110057Z 08003KT 23/01 A2972 RMK A01 T02320014  RH  024%=      5-min Rain = 0
KCL2 110058Z 08003KT 23/01 A2972 RMK A01 T02300013  RH  024%=      5-min Rain = 0
KCL2 110059Z 08003KT 23/01 A2973 RMK A01 T02290011  RH  024%=      5-min Rain = 0
KCL2 110100Z 08003KT 23/01 A2973 RMK A01 T02280010  RH  024%=      5-min Rain = 0
KCL2 110101Z 09003KT 23/01 A2973 RMK A01 T02270010  RH  024%=      5-min Rain = 0
KCL2 110102Z 09003KT 23/01 A2973 RMK A01 T02270010  RH  024%=      5-min Rain = 0
KCL2 110103Z 09003KT 23/01 A2973 RMK A01 T02260011  RH  024%=      5-min Rain = 0
KCL2 110104Z 09004KT 23/01 A2973 RMK A01 T02260010  RH  024%=      5-min Rain = 0
KCL2 110105Z 10003KT 23/01 A2973 RMK A01 T02270009  RH  024%=      5-min Rain = 0
KCL2 110106Z 10003KT 23/01 A2973 RMK A01 T02280005  RH  023%=      5-min Rain = 0
KCL2 110107Z 10003KT 23/01 A2973 RMK A01 T02290008  RH  023%=      5-min Rain = 0
KCL2 110108Z 10003KT 23/01 A2973 RMK A01 T02270014  RH  024%=      5-min Rain = 0
KCL2 110109Z 09003KT 23/01 A2973 RMK A01 T02250011  RH  024%=      5-min Rain = 0
KCL2 110110Z 09003KT 22/01 A2973 RMK A01 T02240007  RH  024%=      5-min Rain = 0
KCL2 110111Z 09003KT 22/00 A2973 RMK A01 T02240004  RH  023%=      5-min Rain = 0
KCL2 110112Z 09004KT 23/00 A2973 RMK A01 T02260003  RH  023%=      5-min Rain = 0
KCL2 110113Z 09004KT 23/00 A2973 RMK A01 T02270001  RH  022%=      5-min Rain = 0
KCL2 110114Z 09004KT 23/00 A2973 RMK A01 T02280001  RH  022%=      5-min Rain = 0
KCL2 110115Z 09004KT 23/00 A2973 RMK A01 T02280002  RH  022%=      5-min Rain = 0
KCL2 110116Z 09004KT 23/01 A2973 RMK A01 T02270007  RH  023%=      5-min Rain = 0
KCL2 110117Z 10003KT 22/01 A2973 RMK A01 T02230010  RH  024%=      5-min Rain = 0
KCL2 110118Z 11003KT 22/01 A2973 RMK A01 T02180012  RH  026%=      5-min Rain = 0
KCL2 110119Z 12004KT 21/02 A2973 RMK A01 T02130017  RH  027%=      5-min Rain = 0
KCL2 110120Z 13004KT 21/02 A2973 RMK A01 T02070015  RH  028%=      5-min Rain = 0
KCL2 110121Z 12004KT 21/01 A2973 RMK A01 T02050008  RH  027%=      5-min Rain = 0
KCL2 110122Z 12004KT 21/01 A2973 RMK A01 T02070007  RH  026%=      5-min Rain = 0
KCL2 110123Z 12004KT 21/01 A2973 RMK A01 T02100005  RH  025%=      5-min Rain = 0
KCL2 110124Z 12005KT 21/00 A2973 RMK A01 T02130003  RH  025%=      5-min Rain = 0
KCL2 110125Z 12005KT 22/00 A2973 RMK A01 T02160003  RH  024%=      5-min Rain = 0
KCL2 110126Z 12005KT 22/00 A2973 RMK A01 T02170003  RH  024%=      5-min Rain = 0
KCL2 110127Z 12005KT 22/00 A2973 RMK A01 T02180003  RH  024%=      5-min Rain = 0
KCL2 110128Z 12005KT 22/00 A2973 RMK A01 T02190000  RH  023%=      5-min Rain = 0
KCL2 110129Z 11004KT 22/M00 A2973 RMK A01 T02211001  RH  023%=      5-min Rain = 0
KCL2 110130Z 11004KT 22/M00 A2973 RMK A01 T02241001  RH  022%=      5-min Rain = 0
KCL2 110131Z 12004KT 23/M00 A2973 RMK A01 T02251001  RH  022%=      5-min Rain = 0
KCL2 110132Z 11004KT 23/M00 A2973 RMK A01 T02261001  RH  022%=      5-min Rain = 0
KCL2 110133Z 11004KT 23/00 A2973 RMK A01 T02270002  RH  022%=      5-min Rain = 0
KCL2 110134Z 11004KT 23/00 A2973 RMK A01 T02260002  RH  023%=      5-min Rain = 0
KCL2 110135Z 11004KT 22/00 A2973 RMK A01 T02240002  RH  023%=      5-min Rain = 0
KCL2 110136Z 11004KT 22/00 A2974 RMK A01 T02210004  RH  024%=      5-min Rain = 0
KCL2 110137Z 11004KT 22/01 A2974 RMK A01 T02190005  RH  024%=      5-min Rain = 0
KCL2 110138Z 11004KT 22/01 A2974 RMK A01 T02170008  RH  025%=      5-min Rain = 0
KCL2 110139Z 11004KT 22/00 A2974 RMK A01 T02150004  RH  024%=      5-min Rain = 0
KCL2 110140Z 11004KT 22/00 A2974 RMK A01 T02160002  RH  024%=      5-min Rain = 0
KCL2 110141Z 11004KT 22/00 A2974 RMK A01 T02170003  RH  024%=      5-min Rain = 0
KCL2 110142Z 11004KT 22/00 A2974 RMK A01 T02160003  RH  024%=      5-min Rain = 0
KCL2 110143Z 11004KT 21/01 A2974 RMK A01 T02140007  RH  025%=      5-min Rain = 0
KCL2 110144Z 11004KT 21/01 A2974 RMK A01 T02110007  RH  026%=      5-min Rain = 0
KCL2 110145Z 11004KT 21/01 A2974 RMK A01 T02080005  RH  026%=      5-min Rain = 0
KCL2 110146Z 11005KT 21/M00 A2974 RMK A01 T02081003  RH  024%=      5-min Rain = 0
KCL2 110147Z 11005KT 21/M01 A2974 RMK A01 T02121005  RH  023%=      5-min Rain = 0
KCL2 110148Z 12005KT 22/M01 A2974 RMK A01 T02171005  RH  023%=      5-min Rain = 0
KCL2 110149Z 12005KT 22/M00 A2974 RMK A01 T02201004  RH  022%=      5-min Rain = 0
KCL2 110150Z 12005KT 22/00 A2974 RMK A01 T02200004  RH  024%=      5-min Rain = 0
KCL2 110151Z 13005KT 22/01 A2974 RMK A01 T02160010  RH  025%=      5-min Rain = 0
KCL2 110152Z 13005KT 21/01 A2974 RMK A01 T02120006  RH  025%=      5-min Rain = 0
KCL2 110153Z 13005KT 21/01 A2974 RMK A01 T02090005  RH  026%=      5-min Rain = 0
KCL2 110154Z 14005KT 21/01 A2974 RMK A01 T02060005  RH  026%=      5-min Rain = 0
KCL2 110155Z 13005KT 20/00 A2974 RMK A01 T02040004  RH  026%=      5-min Rain = 0
KCL2 110156Z 13005KT 20/00 A2974 RMK A01 T02030002  RH  026%=      5-min Rain = 0
KCL2 110157Z 13005KT 21/M00 A2974 RMK A01 T02061004  RH  024%=      5-min Rain = 0
KCL2 110158Z 13006KT 21/M00 A2974 RMK A01 T02101004  RH  024%=      5-min Rain = 0
KCL2 110159Z 13006KT 21/M00 A2974 RMK A01 T02131003  RH  024%=      5-min Rain = 0
KCL2 110200Z 13006KT 22/M01 A2974 RMK A01 T02161005  RH  023%=      5-min Rain = 0
KCL2 110201Z 13006KT 22/M00 A2974 RMK A01 T02201004  RH  022%=      5-min Rain = 0
KCL2 110202Z 13006KT 22/M01 A2974 RMK A01 T02221005  RH  022%=      5-min Rain = 0
KCL2 110203Z 13006KT 22/M00 A2974 RMK A01 T02231004  RH  022%=      5-min Rain = 0
KCL2 110204Z 13005KT 22/M00 A2974 RMK A01 T02241003  RH  022%=      5-min Rain = 0
KCL2 110205Z 13005KT 22/M00 A2974 RMK A01 T02231002  RH  022%=      5-min Rain = 0
KCL2 110206Z 13005KT 22/M00 A2974 RMK A01 T02221002  RH  023%=      5-min Rain = 0
KCL2 110207Z 14004KT 22/M00 A2974 RMK A01 T02191002  RH  023%=      5-min Rain = 0
KCL2 110208Z 14004KT 22/M00 A2974 RMK A01 T02171003  RH  023%=      5-min Rain = 0
KCL2 110209Z 14004KT 22/00 A2974 RMK A01 T021600-0  RH  024%=      5-min Rain = 0
KCL2 110210Z 13003KT 22/00 A2974 RMK A01 T02160001  RH  024%=      5-min Rain = 0
KCL2 110211Z 12003KT 22/M00 A2974 RMK A01 T02161001  RH  024%=      5-min Rain = 0
KCL2 110212Z 12003KT 22/M00 A2974 RMK A01 T02151001  RH  024%=      5-min Rain = 0
KCL2 110213Z 10002KT 22/00 A2975 RMK A01 T02150003  RH  024%=      5-min Rain = 0
KCL2 110214Z 10002KT 21/01 A2975 RMK A01 T02120011  RH  026%=      5-min Rain = 0
KCL2 110215Z 10002KT 21/01 A2975 RMK A01 T02060014  RH  028%=      5-min Rain = 0
KCL2 110216Z 09003KT 20/01 A2975 RMK A01 T02010014  RH  029%=      5-min Rain = 0
KCL2 110217Z 08003KT 20/00 A2975 RMK A01 T01990004  RH  027%=      5-min Rain = 0
KCL2 110218Z 05006KT 20/02 A2975 RMK A01 T01990015  RH  029%=      5-min Rain = 0
KCL2 110219Z 05006KT 19/03 A2975 RMK A01 T01940027  RH  033%=      5-min Rain = 0
KCL2 110220Z 05006KT 19/02 A2975 RMK A01 T01880020  RH  033%=      5-min Rain = 0
KCL2 110221Z 06006KT 19/02 A2975 RMK A01 T01860016  RH  032%=      5-min Rain = 0
KCL2 110222Z 06006KT 19/02 A2975 RMK A01 T01860016  RH  032%=      5-min Rain = 0
KCL2 110223Z 06007KT 19/02 A2975 RMK A01 T01860016  RH  032%=      5-min Rain = 0
KCL2 110224Z 06006KT 19/02 A2975 RMK A01 T01860018  RH  032%=      5-min Rain = 0
KCL2 110225Z 07006KT 19/01 A2975 RMK A01 T01850014  RH  032%=      5-min Rain = 0
KCL2 110226Z 07005KT 19/01 A2975 RMK A01 T01880008  RH  030%=      5-min Rain = 0
KCL2 110227Z 07005KT 19/01 A2975 RMK A01 T01920006  RH  029%=      5-min Rain = 0
KCL2 110228Z 06005KT 20/01 A2975 RMK A01 T01950008  RH  029%=      5-min Rain = 0
KCL2 110229Z 07004KT 20/01 A2975 RMK A01 T01950009  RH  029%=      5-min Rain = 0
KCL2 110230Z 07003KT 20/01 A2975 RMK A01 T01960009  RH  029%=      5-min Rain = 0
KCL2 110231Z 07004KT 20/01 A2975 RMK A01 T01980010  RH  029%=      5-min Rain = 0
KCL2 110232Z 06004KT 20/01 A2975 RMK A01 T01980012  RH  029%=      5-min Rain = 0
KCL2 110233Z 06004KT 20/01 A2975 RMK A01 T01980012  RH  029%=      5-min Rain = 0
KCL2 110234Z 06003KT 20/01 A2976 RMK A01 T01990010  RH  028%=      5-min Rain = 0
KCL2 110235Z 07003KT 20/01 A2976 RMK A01 T01990008  RH  028%=      5-min Rain = 0
KCL2 110236Z 06003KT 20/01 A2976 RMK A01 T01990005  RH  027%=      5-min Rain = 0
KCL2 110237Z 07004KT 20/01 A2976 RMK A01 T01990005  RH  027%=      5-min Rain = 0
KCL2 110238Z 07004KT 20/01 A2976 RMK A01 T01990007  RH  028%=      5-min Rain = 0
KCL2 110239Z 08004KT 20/01 A2976 RMK A01 T02000006  RH  027%=      5-min Rain = 0
KCL2 110240Z 09004KT 20/01 A2976 RMK A01 T02000005  RH  027%=      5-min Rain = 0
KCL2 110241Z 10004KT 20/00 A2976 RMK A01 T02000004  RH  027%=      5-min Rain = 0
KCL2 110242Z 10005KT 20/01 A2976 RMK A01 T02000008  RH  028%=      5-min Rain = 0
KCL2 110243Z 11004KT 20/01 A2976 RMK A01 T01970009  RH  029%=      5-min Rain = 0
KCL2 110244Z 10005KT 20/01 A2976 RMK A01 T01950009  RH  029%=      5-min Rain = 0
KCL2 110245Z 11005KT 20/01 A2976 RMK A01 T01950010  RH  029%=      5-min Rain = 0
KCL2 110246Z 11005KT 20/01 A2976 RMK A01 T01970011  RH  029%=      5-min Rain = 0
KCL2 110247Z 10005KT 20/01 A2976 RMK A01 T01980012  RH  029%=      5-min Rain = 0
KCL2 110248Z 10005KT 20/01 A2976 RMK A01 T01990013  RH  029%=      5-min Rain = 0
KCL2 110249Z 10005KT 20/01 A2976 RMK A01 T02000013  RH  029%=      5-min Rain = 0
KCL2 110250Z 11004KT 20/01 A2976 RMK A01 T02010013  RH  029%=      5-min Rain = 0
KCL2 110251Z 11004KT 20/01 A2976 RMK A01 T02020013  RH  028%=      5-min Rain = 0
KCL2 110252Z 11005KT 20/01 A2976 RMK A01 T02020012  RH  028%=      5-min Rain = 0
KCL2 110253Z 11004KT 20/01 A2976 RMK A01 T02020012  RH  028%=      5-min Rain = 0
KCL2 110254Z 11004KT 20/01 A2976 RMK A01 T02030013  RH  028%=      5-min Rain = 0
KCL2 110255Z 11004KT 20/01 A2976 RMK A01 T02020014  RH  029%=      5-min Rain = 0
KCL2 110256Z 12004KT 20/01 A2976 RMK A01 T02020013  RH  028%=      5-min Rain = 0
KCL2 110257Z 12004KT 20/01 A2976 RMK A01 T02020014  RH  029%=      5-min Rain = 0
KCL2 110258Z 12004KT 20/02 A2976 RMK A01 T02010015  RH  029%=      5-min Rain = 0
KCL2 110259Z 12004KT 20/02 A2976 RMK A01 T01980015  RH  029%=      5-min Rain = 0
KCL2 110300Z 13004KT 20/01 A2976 RMK A01 T01950013  RH  030%=      5-min Rain = 0
KCL2 110301Z 13004KT 19/01 A2976 RMK A01 T01930010  RH  029%=      5-min Rain = 0
KCL2 110302Z 12004KT 20/01 A2976 RMK A01 T01950010  RH  029%=      5-min Rain = 0
KCL2 110303Z 12005KT 20/01 A2976 RMK A01 T01970008  RH  028%=      5-min Rain = 0
KCL2 110304Z 12005KT 20/01 A2976 RMK A01 T02000007  RH  027%=      5-min Rain = 0
KCL2 110305Z 12005KT 20/01 A2976 RMK A01 T02020006  RH  027%=      5-min Rain = 0
KCL2 110306Z 12005KT 20/01 A2976 RMK A01 T02030008  RH  027%=      5-min Rain = 0
KCL2 110307Z 12005KT 20/01 A2976 RMK A01 T02010010  RH  028%=      5-min Rain = 0
KCL2 110308Z 12006KT 20/01 A2976 RMK A01 T01980011  RH  029%=      5-min Rain = 0
KCL2 110309Z 12005KT 20/01 A2976 RMK A01 T01950011  RH  029%=      5-min Rain = 0
KCL2 110310Z 12005KT 19/01 A2976 RMK A01 T01930008  RH  029%=      5-min Rain = 0
KCL2 110311Z 12004KT 19/01 A2976 RMK A01 T01920006  RH  029%=      5-min Rain = 0
KCL2 110312Z 12004KT 19/01 A2976 RMK A01 T01920008  RH  029%=      5-min Rain = 0
KCL2 110313Z 12003KT 19/01 A2976 RMK A01 T01920009  RH  029%=      5-min Rain = 0
KCL2 110314Z 12003KT 19/01 A2976 RMK A01 T01910006  RH  029%=      5-min Rain = 0
KCL2 110315Z 11003KT 19/01 A2976 RMK A01 T01910007  RH  029%=      5-min Rain = 0
KCL2 110316Z 11003KT 19/02 A2976 RMK A01 T01910016  RH  031%=      5-min Rain = 0
KCL2 110317Z 11003KT 19/02 A2976 RMK A01 T01900015  RH  031%=      5-min Rain = 0
KCL2 110318Z 12003KT 19/02 A2976 RMK A01 T01880015  RH  031%=      5-min Rain = 0
KCL2 110319Z 12002KT 19/02 A2976 RMK A01 T01860016  RH  032%=      5-min Rain = 0
KCL2 110320Z 12002KT 19/01 A2976 RMK A01 T01850014  RH  032%=      5-min Rain = 0
KCL2 110321Z 12002KT 18/02 A2976 RMK A01 T01830018  RH  033%=      5-min Rain = 0
KCL2 110322Z 12003KT 18/02 A2976 RMK A01 T01820016  RH  033%=      5-min Rain = 0
KCL2 110323Z 12003KT 18/02 A2976 RMK A01 T01800017  RH  034%=      5-min Rain = 0
KCL2 110324Z 12003KT 18/01 A2976 RMK A01 T01780014  RH  033%=      5-min Rain = 0
KCL2 110325Z 12003KT 18/01 A2976 RMK A01 T01770011  RH  033%=      5-min Rain = 0
KCL2 110326Z 12004KT 18/01 A2976 RMK A01 T01770007  RH  032%=      5-min Rain = 0
KCL2 110327Z 13003KT 18/01 A2976 RMK A01 T01780007  RH  032%=      5-min Rain = 0
KCL2 110328Z 12003KT 18/01 A2976 RMK A01 T01780007  RH  032%=      5-min Rain = 0
KCL2 110329Z 11003KT 18/01 A2976 RMK A01 T01780007  RH  032%=      5-min Rain = 0
KCL2 110330Z 11003KT 18/01 A2976 RMK A01 T01770009  RH  032%=      5-min Rain = 0
KCL2 110331Z 09004KT 18/01 A2976 RMK A01 T01760010  RH  033%=      5-min Rain = 0
KCL2 110332Z 09005KT 18/01 A2976 RMK A01 T01750010  RH  033%=      5-min Rain = 0
KCL2 110333Z 09004KT 17/01 A2976 RMK A01 T01730011  RH  034%=      5-min Rain = 0
KCL2 110334Z 09004KT 17/01 A2976 RMK A01 T01730007  RH  033%=      5-min Rain = 0
KCL2 110335Z 09004KT 18/01 A2976 RMK A01 T01750007  RH  032%=      5-min Rain = 0
KCL2 110336Z 07004KT 18/01 A2976 RMK A01 T01770010  RH  033%=      5-min Rain = 0
KCL2 110337Z 06005KT 18/01 A2976 RMK A01 T01770014  RH  033%=      5-min Rain = 0
KCL2 110338Z 05006KT 18/02 A2977 RMK A01 T01780017  RH  034%=      5-min Rain = 0
KCL2 110339Z 06006KT 18/02 A2977 RMK A01 T01760022  RH  036%=      5-min Rain = 0
KCL2 110340Z 06006KT 17/02 A2977 RMK A01 T01730024  RH  037%=      5-min Rain = 0
KCL2 110341Z 07005KT 17/03 A2977 RMK A01 T01700026  RH  038%=      5-min Rain = 0
KCL2 110342Z 06006KT 17/03 A2977 RMK A01 T01720029  RH  038%=      5-min Rain = 0
KCL2 110343Z 05006KT 17/03 A2977 RMK A01 T01740030  RH  038%=      5-min Rain = 0
KCL2 110344Z 06004KT 17/03 A2977 RMK A01 T01740031  RH  038%=      5-min Rain = 0
KCL2 110345Z 06005KT 18/03 A2977 RMK A01 T01750031  RH  038%=      5-min Rain = 0
KCL2 110346Z 08005KT 18/03 A2977 RMK A01 T01790031  RH  037%=      5-min Rain = 0
KCL2 110347Z 08005KT 18/03 A2977 RMK A01 T01820031  RH  037%=      5-min Rain = 0
KCL2 110348Z 07004KT 18/03 A2977 RMK A01 T01840032  RH  036%=      5-min Rain = 0
KCL2 110349Z 07005KT 19/03 A2977 RMK A01 T01850034  RH  037%=      5-min Rain = 0
KCL2 110350Z 07005KT 19/04 A2977 RMK A01 T01850038  RH  037%=      5-min Rain = 0
KCL2 110351Z 07005KT 19/04 A2977 RMK A01 T01860039  RH  038%=      5-min Rain = 0
KCL2 110352Z 07006KT 19/04 A2977 RMK A01 T01890042  RH  038%=      5-min Rain = 0
KCL2 110353Z 07006KT 19/05 A2977 RMK A01 T01910045  RH  038%=      5-min Rain = 0
KCL2 110354Z 07007KT 19/05 A2977 RMK A01 T01930047  RH  038%=      5-min Rain = 0
KCL2 110355Z 06008KT 19/05 A2977 RMK A01 T01940049  RH  038%=      5-min Rain = 0
KCL2 110356Z 06008KT 19/05 A2977 RMK A01 T01940049  RH  039%=      5-min Rain = 0
KCL2 110357Z 06007KT 19/05 A2977 RMK A01 T01940050  RH  039%=      5-min Rain = 0
KCL2 110358Z 06008KT 19/05 A2977 RMK A01 T01940050  RH  039%=      5-min Rain = 0
KCL2 110359Z 06008KT 19/05 A2977 RMK A01 T01940050  RH  039%=      5-min Rain = 0
KCL2 110400Z 06008KT 20/05 A2977 RMK A01 T01950050  RH  039%=      5-min Rain = 0
KCL2 110401Z 06007KT 19/05 A2977 RMK A01 T01940050  RH  039%=      5-min Rain = 0
KCL2 110402Z 06008KT 19/05 A2977 RMK A01 T01940050  RH  039%=      5-min Rain = 0
KCL2 110403Z 06008KT 19/05 A2977 RMK A01 T01930050  RH  039%=      5-min Rain = 0
KCL2 110404Z 06008KT 19/05 A2977 RMK A01 T01930051  RH  039%=      5-min Rain = 0
KCL2 110405Z 06009KT 19/05 A2977 RMK A01 T01930051  RH  039%=      5-min Rain = 0
KCL2 110406Z 06008KT 19/05 A2977 RMK A01 T01930051  RH  039%=      5-min Rain = 0
KCL2 110407Z 06009KT 19/05 A2977 RMK A01 T01930052  RH  039%=      5-min Rain = 0
KCL2 110408Z 06009KT 19/05 A2977 RMK A01 T01940052  RH  039%=      5-min Rain = 0
KCL2 110409Z 06009KT 19/05 A2977 RMK A01 T01940052  RH  039%=      5-min Rain = 0
KCL2 110410Z 06008KT 20/05 A2977 RMK A01 T01950052  RH  039%=      5-min Rain = 0
KCL2 110411Z 06008KT 20/05 A2978 RMK A01 T01950052  RH  039%=      5-min Rain = 0
KCL2 110412Z 06009KT 20/05 A2978 RMK A01 T01950052  RH  039%=      5-min Rain = 0
KCL2 110413Z 06008KT 19/05 A2978 RMK A01 T01940052  RH  039%=      5-min Rain = 0
KCL2 110414Z 06008KT 19/05 A2978 RMK A01 T01930052  RH  040%=      5-min Rain = 0
KCL2 110415Z 06008KT 19/05 A2978 RMK A01 T01920052  RH  040%=      5-min Rain = 0
KCL2 110416Z 06008KT 19/05 A2978 RMK A01 T01920052  RH  040%=      5-min Rain = 0
KCL2 110417Z 06008KT 19/05 A2978 RMK A01 T01910052  RH  040%=      5-min Rain = 0
KCL2 110418Z 06008KT 19/05 A2978 RMK A01 T01900052  RH  040%=      5-min Rain = 0
KCL2 110419Z 06008KT 19/05 A2978 RMK A01 T01890053  RH  041%=      5-min Rain = 0
KCL2 110420Z 06008KT 19/05 A2978 RMK A01 T01890054  RH  041%=      5-min Rain = 0
KCL2 110421Z 06009KT 19/05 A2978 RMK A01 T01880054  RH  041%=      5-min Rain = 0
KCL2 110422Z 06009KT 19/05 A2978 RMK A01 T01880054  RH  041%=      5-min Rain = 0
KCL2 110423Z 06009KT 19/05 A2978 RMK A01 T01890054  RH  041%=      5-min Rain = 0
KCL2 110424Z 06009KT 19/06 A2978 RMK A01 T01900055  RH  041%=      5-min Rain = 0
KCL2 110425Z 06008KT 19/06 A2978 RMK A01 T01900055  RH  041%=      5-min Rain = 0
KCL2 110426Z 06009KT 19/06 A2978 RMK A01 T01890055  RH  041%=      5-min Rain = 0
KCL2 110427Z 05009KT 19/06 A2978 RMK A01 T01880056  RH  042%=      5-min Rain = 0
KCL2 110428Z 06009KT 19/06 A2978 RMK A01 T01880057  RH  042%=      5-min Rain = 0
KCL2 110429Z 06009KT 19/06 A2978 RMK A01 T01880058  RH  042%=      5-min Rain = 0
KCL2 110430Z 06009KT 19/06 A2978 RMK A01 T01880058  RH  043%=      5-min Rain = 0
KCL2 110431Z 06009KT 19/06 A2978 RMK A01 T01880058  RH  043%=      5-min Rain = 0
KCL2 110432Z 05009KT 19/06 A2978 RMK A01 T01890059  RH  042%=      5-min Rain = 0
KCL2 110433Z 05009KT 19/06 A2978 RMK A01 T01900060  RH  043%=      5-min Rain = 0
KCL2 110434Z 05009KT 19/06 A2978 RMK A01 T01890062  RH  043%=      5-min Rain = 0
KCL2 110435Z 06010KT 19/06 A2978 RMK A01 T01890063  RH  044%=      5-min Rain = 0
KCL2 110436Z 05009KT 19/07 A2978 RMK A01 T01880065  RH  045%=      5-min Rain = 0
KCL2 110437Z 06010KT 19/07 A2978 RMK A01 T01880067  RH  045%=      5-min Rain = 0
KCL2 110438Z 06009KT 19/07 A2978 RMK A01 T01880069  RH  046%=      5-min Rain = 0
KCL2 110439Z 06010KT 19/07 A2978 RMK A01 T01880070  RH  046%=      5-min Rain = 0
KCL2 110440Z 06009KT 19/07 A2978 RMK A01 T01870071  RH  047%=      5-min Rain = 0
KCL2 110441Z 06009KT 19/07 A2978 RMK A01 T01870072  RH  047%=      5-min Rain = 0
KCL2 110442Z 06009KT 19/07 A2978 RMK A01 T01860072  RH  047%=      5-min Rain = 0
KCL2 110443Z 06010KT 19/07 A2978 RMK A01 T01860073  RH  048%=      5-min Rain = 0
KCL2 110444Z 06010KT 19/07 A2978 RMK A01 T01850073  RH  048%=      5-min Rain = 0
KCL2 110445Z 06011KT 19/07 A2978 RMK A01 T01850074  RH  048%=      5-min Rain = 0
KCL2 110446Z 06011KT 19/08 A2978 RMK A01 T01860076  RH  049%=      5-min Rain = 0
KCL2 110447Z 06010KT 19/08 A2978 RMK A01 T01870076  RH  048%=      5-min Rain = 0
KCL2 110448Z 06011KT 19/08 A2978 RMK A01 T01880076  RH  048%=      5-min Rain = 0
KCL2 110449Z 06011KT 19/08 A2978 RMK A01 T01870077  RH  049%=      5-min Rain = 0
KCL2 110450Z 06012KT 19/08 A2978 RMK A01 T01870077  RH  049%=      5-min Rain = 0
KCL2 110451Z 06012KT 19/08 A2978 RMK A01 T01870076  RH  049%=      5-min Rain = 0
KCL2 110452Z 06013KT 19/08 A2978 RMK A01 T01870077  RH  049%=      5-min Rain = 0
KCL2 110453Z 06012KT 19/08 A2978 RMK A01 T01870077  RH  049%=      5-min Rain = 0
KCL2 110454Z 06012KT 19/08 A2978 RMK A01 T01870078  RH  049%=      5-min Rain = 0
KCL2 110455Z 06012KT 19/08 A2978 RMK A01 T01870079  RH  049%=      5-min Rain = 0
KCL2 110456Z 06012KT 19/08 A2978 RMK A01 T01870080  RH  050%=      5-min Rain = 0
KCL2 110457Z 06012KT 19/08 A2978 RMK A01 T01870081  RH  050%=      5-min Rain = 0
KCL2 110458Z 06011KT 19/08 A2978 RMK A01 T01860081  RH  050%=      5-min Rain = 0
KCL2 110459Z 06012KT 19/08 A2978 RMK A01 T01870082  RH  051%=      5-min Rain = 0
KCL2 110500Z 06012KT 19/08 A2978 RMK A01 T01860082  RH  051%=      5-min Rain = 0
KCL2 110501Z 06012KT 19/08 A2978 RMK A01 T01860082  RH  051%=      5-min Rain = 0
KCL2 110502Z 06012KT 19/08 A2978 RMK A01 T01850083  RH  051%=      5-min Rain = 0
KCL2 110503Z 07012KT 19/08 A2978 RMK A01 T01850083  RH  051%=      5-min Rain = 0
KCL2 110504Z 07012KT 19/08 A2978 RMK A01 T01850083  RH  052%=      5-min Rain = 0
KCL2 110505Z 06011KT 19/08 A2978 RMK A01 T01850083  RH  051%=      5-min Rain = 0
KCL2 110506Z 07011KT 18/08 A2978 RMK A01 T01840083  RH  052%=      5-min Rain = 0
KCL2 110507Z 07010KT 18/08 A2978 RMK A01 T01840083  RH  052%=      5-min Rain = 0
KCL2 110508Z 06010KT 18/08 A2978 RMK A01 T01830083  RH  052%=      5-min Rain = 0
KCL2 110509Z 06012KT 18/08 A2978 RMK A01 T01820082  RH  052%=      5-min Rain = 0
KCL2 110510Z 06011KT 18/08 A2978 RMK A01 T01820083  RH  052%=      5-min Rain = 0
KCL2 110511Z 06010KT 18/08 A2978 RMK A01 T01810083  RH  053%=      5-min Rain = 0
KCL2 110512Z 06011KT 18/08 A2978 RMK A01 T01800083  RH  053%=      5-min Rain = 0
KCL2 110513Z 06010KT 18/08 A2978 RMK A01 T01800083  RH  053%=      5-min Rain = 0
KCL2 110514Z 06010KT 18/08 A2979 RMK A01 T01780083  RH  054%=      5-min Rain = 0
KCL2 110515Z 06011KT 18/08 A2979 RMK A01 T01780084  RH  054%=      5-min Rain = 0
KCL2 110516Z 06011KT 18/08 A2979 RMK A01 T01780084  RH  054%=      5-min Rain = 0
KCL2 110517Z 06012KT 18/09 A2979 RMK A01 T01780085  RH  054%=      5-min Rain = 0
KCL2 110518Z 07012KT 18/09 A2979 RMK A01 T01790086  RH  055%=      5-min Rain = 0
KCL2 110519Z 07014KT 18/09 A2979 RMK A01 T01790088  RH  055%=      5-min Rain = 0
KCL2 110520Z 07015KT 18/09 A2979 RMK A01 T01810089  RH  055%=      5-min Rain = 0
KCL2 110521Z 07014KT 18/09 A2979 RMK A01 T01840090  RH  054%=      5-min Rain = 0
KCL2 110522Z 07016KT 19/09 A2979 RMK A01 T01870092  RH  054%=      5-min Rain = 0
KCL2 110523Z 07015KT 19/09 A2979 RMK A01 T01880091  RH  053%=      5-min Rain = 0
KCL2 110524Z 07016KT 19/09 A2979 RMK A01 T01890093  RH  054%=      5-min Rain = 0
KCL2 110525Z 07016KT 19/09 A2979 RMK A01 T01910094  RH  053%=      5-min Rain = 0
KCL2 110526Z 07014KT 19/09 A2979 RMK A01 T01920094  RH  053%=      5-min Rain = 0
KCL2 110527Z 07015KT 19/09 A2979 RMK A01 T01920094  RH  053%=      5-min Rain = 0
KCL2 110528Z 07014KT 19/09 A2979 RMK A01 T01930094  RH  053%=      5-min Rain = 0
KCL2 110529Z 07013KT 19/10 A2979 RMK A01 T01930095  RH  053%=      5-min Rain = 0
KCL2 110530Z 07013KT 19/09 A2979 RMK A01 T01930094  RH  053%=      5-min Rain = 0
KCL2 110531Z 07013KT 19/10 A2979 RMK A01 T01930095  RH  053%=      5-min Rain = 0
KCL2 110532Z 07012KT 19/09 A2979 RMK A01 T01920094  RH  053%=      5-min Rain = 0
KCL2 110533Z 07012KT 19/09 A2979 RMK A01 T01910094  RH  053%=      5-min Rain = 0
KCL2 110534Z 06008KT 19/09 A2979 RMK A01 T01910094  RH  053%=      5-min Rain = 0
KCL2 110535Z 06010KT 19/09 A2979 RMK A01 T01890093  RH  054%=      5-min Rain = 0
KCL2 110536Z 06010KT 19/09 A298 RMK A01 T01880094  RH  054%=      5-min Rain = 0
KCL2 110537Z 06011KT 19/09 A298 RMK A01 T01880094  RH  054%=      5-min Rain = 0
KCL2 110538Z 06009G14KT 19/09 A298 RMK A01 T01880094  RH  054%=      5-min Rain = 0
KCL2 110539Z 06008KT 19/09 A298 RMK A01 T01870093  RH  054%=      5-min Rain = 0
KCL2 110540Z 06009KT 19/09 A298 RMK A01 T01850093  RH  055%=      5-min Rain = 0
KCL2 110541Z 06008KT 18/09 A298 RMK A01 T01840093  RH  055%=      5-min Rain = 0
KCL2 110542Z 06009KT 18/09 A298 RMK A01 T01830092  RH  056%=      5-min Rain = 0
KCL2 110543Z 07011KT 18/09 A298 RMK A01 T01820093  RH  056%=      5-min Rain = 0
KCL2 110544Z 07012KT 18/09 A298 RMK A01 T01820093  RH  056%=      5-min Rain = 0
KCL2 110545Z 07012KT 19/09 A298 RMK A01 T01850094  RH  055%=      5-min Rain = 0
KCL2 110546Z 07011KT 19/10 A298 RMK A01 T01880095  RH  055%=      5-min Rain = 0
KCL2 110547Z 07010KT 19/10 A298 RMK A01 T01880095  RH  054%=      5-min Rain = 0
KCL2 110548Z 08009KT 19/10 A298 RMK A01 T01890095  RH  054%=      5-min Rain = 0
KCL2 110549Z 08010KT 19/10 A298 RMK A01 T01880095  RH  055%=      5-min Rain = 0
KCL2 110550Z 08010KT 19/10 A298 RMK A01 T01880095  RH  055%=      5-min Rain = 0
KCL2 110551Z 07011KT 19/10 A298 RMK A01 T01890095  RH  055%=      5-min Rain = 0
KCL2 110552Z 07011KT 19/10 A298 RMK A01 T01890095  RH  055%=      5-min Rain = 0
KCL2 110553Z 07012KT 19/10 A298 RMK A01 T01890095  RH  055%=      5-min Rain = 0
KCL2 110554Z 07011KT 19/10 A298 RMK A01 T01890096  RH  055%=      5-min Rain = 0
KCL2 110555Z 07009KT 19/10 A298 RMK A01 T01890096  RH  055%=      5-min Rain = 0
KCL2 110556Z 07007KT 19/10 A298 RMK A01 T01890096  RH  055%=      5-min Rain = 0
KCL2 110557Z 08008KT 19/10 A298 RMK A01 T01890095  RH  055%=      5-min Rain = 0
KCL2 110558Z 08009KT 19/10 A298 RMK A01 T01880095  RH  055%=      5-min Rain = 0
KCL2 110559Z 07011KT 19/10 A298 RMK A01 T01870095  RH  055%=      5-min Rain = 0

Page generated in 0.1411 seconds.